<?xml version="1.0" encoding="UTF-8" standalone="no" ?><gpx xmlns="http://www.topografix.com/GPX/1/1" xmlns:gpxx="http://www.garmin.com/xmlschemas/GpxExtensions/v3" xmlns:wptx1="http://www.garmin.com/xmlschemas/WaypointExtension/v1" xmlns:gpxtpx="http://www.garmin.com/xmlschemas/TrackPointExtension/v1" creator="GuideVTT.com" version="1.1" xmlns:xsi="http://www.w3.org/2001/XMLSchema-instance" xsi:schemaLocation="http://www.topografix.com/GPX/1/1 http://www.topografix.com/GPX/1/1/gpx.xsd http://www.garmin.com/xmlschemas/GpxExtensions/v3 http://www8.garmin.com/xmlschemas/GpxExtensionsv3.xsd http://www.garmin.com/xmlschemas/WaypointExtension/v1 http://www8.garmin.com/xmlschemas/WaypointExtensionv1.xsd http://www.garmin.com/xmlschemas/TrackPointExtension/v1 http://www.garmin.com/xmlschemas/TrackPointExtensionv1.xsd">
<metadata><link href="http://www.garmin.com"><text>Garmin International</text></link><time>2013-06-22T15:13:50Z</time></metadata>
<trk><name>saanenmoser.gpx</name><extensions><gpxx:TrackExtension><gpxx:DisplayColor>Cyan</gpxx:DisplayColor></gpxx:TrackExtension></extensions><trkseg>
<trkpt lat="46.6013361851441" lon="7.205395882465193"><ele></ele><time>2014-8-4T8:51:47Z</time></trkpt>
<trkpt lat="46.60043393329552" lon="7.210561036809318"><ele></ele><time>2014-8-4T8:51:50Z</time></trkpt>
<trkpt lat="46.599688478118715" lon="7.213058818680373"><ele></ele><time>2014-8-4T8:51:53Z</time></trkpt>
<trkpt lat="46.59907287997142" lon="7.214526216279609"><ele></ele><time>2014-8-4T8:51:56Z</time></trkpt>
<trkpt lat="46.59909140101224" lon="7.214673822712943"><ele></ele><time>2014-8-4T8:51:59Z</time></trkpt>
<trkpt lat="46.599438488458745" lon="7.215061752544795"><ele></ele><time>2014-8-4T8:52:2Z</time></trkpt>
<trkpt lat="46.5989151014207" lon="7.216040571735014"><ele></ele><time>2014-8-4T8:52:5Z</time></trkpt>
<trkpt lat="46.598850466182235" lon="7.216563601042163"><ele></ele><time>2014-8-4T8:52:8Z</time></trkpt>
<trkpt lat="46.599059342086825" lon="7.224919297260142"><ele></ele><time>2014-8-4T8:52:11Z</time></trkpt>
<trkpt lat="46.59863497957823" lon="7.22837715828076"><ele></ele><time>2014-8-4T8:52:14Z</time></trkpt>
<trkpt lat="46.59874184869296" lon="7.228395770554188"><ele></ele><time>2014-8-4T8:52:17Z</time></trkpt>
<trkpt lat="46.59876941252864" lon="7.229026259943345"><ele></ele><time>2014-8-4T8:52:20Z</time></trkpt>
<trkpt lat="46.599019762339616" lon="7.229929673917902"><ele></ele><time>2014-8-4T8:52:23Z</time></trkpt>
<trkpt lat="46.59930750027986" lon="7.230596719190664"><ele></ele><time>2014-8-4T8:52:26Z</time></trkpt>
<trkpt lat="46.59955407114021" lon="7.231854604503836"><ele></ele><time>2014-8-4T8:52:29Z</time></trkpt>
<trkpt lat="46.599785912940405" lon="7.2319608968161155"><ele></ele><time>2014-8-4T8:52:32Z</time></trkpt>
<trkpt lat="46.59984743123449" lon="7.232210429187218"><ele></ele><time>2014-8-4T8:52:35Z</time></trkpt>
<trkpt lat="46.59968027154793" lon="7.233416664836696"><ele></ele><time>2014-8-4T8:52:38Z</time></trkpt>
<trkpt lat="46.59975561082374" lon="7.2341251918689204"><ele></ele><time>2014-8-4T8:52:41Z</time></trkpt>
<trkpt lat="46.600028094340644" lon="7.234761223353268"><ele></ele><time>2014-8-4T8:52:44Z</time></trkpt>
<trkpt lat="46.60034064814258" lon="7.23516264645394"><ele></ele><time>2014-8-4T8:52:47Z</time></trkpt>
<trkpt lat="46.60059040779748" lon="7.236242332154035"><ele></ele><time>2014-8-4T8:52:50Z</time></trkpt>
<trkpt lat="46.6005826878156" lon="7.23667333030083"><ele></ele><time>2014-8-4T8:52:53Z</time></trkpt>
<trkpt lat="46.60038384747276" lon="7.2377333839203395"><ele></ele><time>2014-8-4T8:52:56Z</time></trkpt>
<trkpt lat="46.600211591712856" lon="7.238098158147314"><ele></ele><time>2014-8-4T8:52:59Z</time></trkpt>
<trkpt lat="46.59967749220085" lon="7.238273821392937"><ele></ele><time>2014-8-4T8:53:2Z</time></trkpt>
<trkpt lat="46.59965317748495" lon="7.238631896144174"><ele></ele><time>2014-8-4T8:53:5Z</time></trkpt>
<trkpt lat="46.599762207345115" lon="7.239581153370032"><ele></ele><time>2014-8-4T8:53:8Z</time></trkpt>
<trkpt lat="46.599611910866784" lon="7.2400144088210885"><ele></ele><time>2014-8-4T8:53:11Z</time></trkpt>
<trkpt lat="46.599712888522326" lon="7.241244041036369"><ele></ele><time>2014-8-4T8:53:14Z</time></trkpt>
<trkpt lat="46.59960851535001" lon="7.242161438238518"><ele></ele><time>2014-8-4T8:53:17Z</time></trkpt>
<trkpt lat="46.59992507617895" lon="7.243384960434513"><ele></ele><time>2014-8-4T8:53:20Z</time></trkpt>
<trkpt lat="46.60017585632801" lon="7.243733658646899"><ele></ele><time>2014-8-4T8:53:23Z</time></trkpt>
<trkpt lat="46.60016713568513" lon="7.243907080274084"><ele></ele><time>2014-8-4T8:53:26Z</time></trkpt>
<trkpt lat="46.60046819293083" lon="7.244982912325057"><ele></ele><time>2014-8-4T8:53:29Z</time></trkpt>
<trkpt lat="46.60067388227485" lon="7.24513413058633"><ele></ele><time>2014-8-4T8:53:32Z</time></trkpt>
<trkpt lat="46.600976042400234" lon="7.2455441027241925"><ele></ele><time>2014-8-4T8:53:35Z</time></trkpt>
<trkpt lat="46.60112053920508" lon="7.245923139144619"><ele></ele><time>2014-8-4T8:53:38Z</time></trkpt>
<trkpt lat="46.6016657706898" lon="7.2465534818998565"><ele></ele><time>2014-8-4T8:53:41Z</time></trkpt>
<trkpt lat="46.601724354558144" lon="7.246844253171692"><ele></ele><time>2014-8-4T8:53:44Z</time></trkpt>
<trkpt lat="46.60167648330505" lon="7.247373401988335"><ele></ele><time>2014-8-4T8:53:47Z</time></trkpt>
<trkpt lat="46.60195240630333" lon="7.247871047936319"><ele></ele><time>2014-8-4T8:53:50Z</time></trkpt>
<trkpt lat="46.60220453096421" lon="7.248049676946412"><ele></ele><time>2014-8-4T8:53:53Z</time></trkpt>
<trkpt lat="46.602382305291286" lon="7.248364341531659"><ele></ele><time>2014-8-4T8:53:56Z</time></trkpt>
<trkpt lat="46.602789473801934" lon="7.249640421903115"><ele></ele><time>2014-8-4T8:53:59Z</time></trkpt>
<trkpt lat="46.60355459978185" lon="7.252661884375495"><ele></ele><time>2014-8-4T8:54:2Z</time></trkpt>
<trkpt lat="46.603622360081225" lon="7.255172524211405"><ele></ele><time>2014-8-4T8:54:5Z</time></trkpt>
<trkpt lat="46.603808666839846" lon="7.256360585358802"><ele></ele><time>2014-8-4T8:54:8Z</time></trkpt>
<trkpt lat="46.60393757177596" lon="7.256819668428245"><ele></ele><time>2014-8-4T8:54:11Z</time></trkpt>
<trkpt lat="46.60488520665017" lon="7.258103900908917"><ele></ele><time>2014-8-4T8:54:14Z</time></trkpt>
<trkpt lat="46.60505390811249" lon="7.259461527563009"><ele></ele><time>2014-8-4T8:54:17Z</time></trkpt>
<trkpt lat="46.60498693423236" lon="7.259580045236651"><ele></ele><time>2014-8-4T8:54:20Z</time></trkpt>
<trkpt lat="46.60487763393652" lon="7.259581717217066"><ele></ele><time>2014-8-4T8:54:23Z</time></trkpt>
<trkpt lat="46.60485433433249" lon="7.259472583657736"><ele></ele><time>2014-8-4T8:54:26Z</time></trkpt>
<trkpt lat="46.60486312763784" lon="7.259866115235833"><ele></ele><time>2014-8-4T8:54:29Z</time></trkpt>
<trkpt lat="46.605586187031456" lon="7.262370578695824"><ele></ele><time>2014-8-4T8:54:32Z</time></trkpt>
<trkpt lat="46.60550528513837" lon="7.263206755936746"><ele></ele><time>2014-8-4T8:54:35Z</time></trkpt>
<trkpt lat="46.60554995788297" lon="7.26335520156243"><ele></ele><time>2014-8-4T8:54:38Z</time></trkpt>
<trkpt lat="46.6059782727094" lon="7.263426716562236"><ele></ele><time>2014-8-4T8:54:41Z</time></trkpt>
<trkpt lat="46.606033246924866" lon="7.263999874557994"><ele></ele><time>2014-8-4T8:54:44Z</time></trkpt>
<trkpt lat="46.60634427814238" lon="7.26512289687197"><ele></ele><time>2014-8-4T8:54:47Z</time></trkpt>
<trkpt lat="46.6063272505377" lon="7.265753719590015"><ele></ele><time>2014-8-4T8:54:50Z</time></trkpt>
<trkpt lat="46.606558983112734" lon="7.267169016296823"><ele></ele><time>2014-8-4T8:54:53Z</time></trkpt>
<trkpt lat="46.60668160760096" lon="7.267324924945876"><ele></ele><time>2014-8-4T8:54:56Z</time></trkpt>
<trkpt lat="46.607504468322574" lon="7.266945173068813"><ele></ele><time>2014-8-4T8:54:59Z</time></trkpt>
<trkpt lat="46.60800008162221" lon="7.267447521452869"><ele></ele><time>2014-8-4T8:55:2Z</time></trkpt>
<trkpt lat="46.60831850779577" lon="7.267605114321386"><ele></ele><time>2014-8-4T8:55:5Z</time></trkpt>
<trkpt lat="46.60856786264365" lon="7.267982897480307"><ele></ele><time>2014-8-4T8:55:8Z</time></trkpt>
<trkpt lat="46.60861152369592" lon="7.268433427471742"><ele></ele><time>2014-8-4T8:55:11Z</time></trkpt>
<trkpt lat="46.60833809199071" lon="7.2691218236871356"><ele></ele><time>2014-8-4T8:55:14Z</time></trkpt>
<trkpt lat="46.60877461797052" lon="7.269356199657349"><ele></ele><time>2014-8-4T8:55:17Z</time></trkpt>
<trkpt lat="46.60868658195696" lon="7.270685652591818"><ele></ele><time>2014-8-4T8:55:20Z</time></trkpt>
<trkpt lat="46.608809877710684" lon="7.270805686624543"><ele></ele><time>2014-8-4T8:55:23Z</time></trkpt>
<trkpt lat="46.609095030898416" lon="7.270796729364382"><ele></ele><time>2014-8-4T8:55:26Z</time></trkpt>
<trkpt lat="46.60922846852307" lon="7.2709300072351475"><ele></ele><time>2014-8-4T8:55:29Z</time></trkpt>
<trkpt lat="46.609547386714794" lon="7.271650194594411"><ele></ele><time>2014-8-4T8:55:32Z</time></trkpt>
<trkpt lat="46.60963422331594" lon="7.271656400683532"><ele></ele><time>2014-8-4T8:55:35Z</time></trkpt>
<trkpt lat="46.60965173626767" lon="7.271927975608908"><ele></ele><time>2014-8-4T8:55:38Z</time></trkpt>
<trkpt lat="46.60953463359649" lon="7.272299709111189"><ele></ele><time>2014-8-4T8:55:41Z</time></trkpt>
<trkpt lat="46.60897688772276" lon="7.272956326517298"><ele></ele><time>2014-8-4T8:55:44Z</time></trkpt>
<trkpt lat="46.608946792819864" lon="7.273152462261742"><ele></ele><time>2014-8-4T8:55:47Z</time></trkpt>
<trkpt lat="46.60913856446008" lon="7.27350115781238"><ele></ele><time>2014-8-4T8:55:50Z</time></trkpt>
<trkpt lat="46.609234518680196" lon="7.274472123328958"><ele></ele><time>2014-8-4T8:55:53Z</time></trkpt>
<trkpt lat="46.60957958567468" lon="7.275339162945798"><ele></ele><time>2014-8-4T8:55:56Z</time></trkpt>
<trkpt lat="46.60965165806463" lon="7.275967558401086"><ele></ele><time>2014-8-4T8:55:59Z</time></trkpt>
<trkpt lat="46.61028146880791" lon="7.276327335497034"><ele></ele><time>2014-8-4T8:56:2Z</time></trkpt>
<trkpt lat="46.61037500706031" lon="7.276534875568512"><ele></ele><time>2014-8-4T8:56:5Z</time></trkpt>
<trkpt lat="46.610342482289546" lon="7.276685497383841"><ele></ele><time>2014-8-4T8:56:8Z</time></trkpt>
<trkpt lat="46.60991575355699" lon="7.276945990494675"><ele></ele><time>2014-8-4T8:56:11Z</time></trkpt>
<trkpt lat="46.61040869834875" lon="7.276744173461083"><ele></ele><time>2014-8-4T8:56:14Z</time></trkpt>
<trkpt lat="46.610825000210774" lon="7.278208427677831"><ele></ele><time>2014-8-4T8:56:17Z</time></trkpt>
<trkpt lat="46.61050570375919" lon="7.27971288587432"><ele></ele><time>2014-8-4T8:56:20Z</time></trkpt>
<trkpt lat="46.61037259228219" lon="7.280052348366234"><ele></ele><time>2014-8-4T8:56:23Z</time></trkpt>
<trkpt lat="46.61040350951292" lon="7.280679065781068"><ele></ele><time>2014-8-4T8:56:26Z</time></trkpt>
<trkpt lat="46.6103214418067" lon="7.281130093663007"><ele></ele><time>2014-8-4T8:56:29Z</time></trkpt>
<trkpt lat="46.610288058280766" lon="7.2823507514106876"><ele></ele><time>2014-8-4T8:56:32Z</time></trkpt>
<trkpt lat="46.61021496208727" lon="7.282653838757922"><ele></ele><time>2014-8-4T8:56:35Z</time></trkpt>
<trkpt lat="46.609883698704046" lon="7.283163194946765"><ele></ele><time>2014-8-4T8:56:38Z</time></trkpt>
<trkpt lat="46.60993574324014" lon="7.2835384555890545"><ele></ele><time>2014-8-4T8:56:41Z</time></trkpt>
<trkpt lat="46.61030059030062" lon="7.284479005322723"><ele></ele><time>2014-8-4T8:56:44Z</time></trkpt>
<trkpt lat="46.610394959476366" lon="7.285067084591428"><ele></ele><time>2014-8-4T8:56:47Z</time></trkpt>
<trkpt lat="46.61022066689249" lon="7.286758297789697"><ele></ele><time>2014-8-4T8:56:50Z</time></trkpt>
<trkpt lat="46.60982853602723" lon="7.288038955945985"><ele></ele><time>2014-8-4T8:56:53Z</time></trkpt>
<trkpt lat="46.60987352558073" lon="7.28915710592166"><ele></ele><time>2014-8-4T8:56:56Z</time></trkpt>
<trkpt lat="46.609495316175334" lon="7.290049346465496"><ele></ele><time>2014-8-4T8:56:59Z</time></trkpt>
<trkpt lat="46.60874896994163" lon="7.291088004694552"><ele></ele><time>2014-8-4T8:57:2Z</time></trkpt>
<trkpt lat="46.60805700779319" lon="7.292894281434594"><ele></ele><time>2014-8-4T8:57:5Z</time></trkpt>
<trkpt lat="46.60791918779385" lon="7.294007562770037"><ele></ele><time>2014-8-4T8:57:8Z</time></trkpt>
<trkpt lat="46.6078968752457" lon="7.294882215355282"><ele></ele><time>2014-8-4T8:57:11Z</time></trkpt>
<trkpt lat="46.607123864710736" lon="7.296442060559425"><ele></ele><time>2014-8-4T8:57:14Z</time></trkpt>
<trkpt lat="46.60702277226409" lon="7.296782446419239"><ele></ele><time>2014-8-4T8:57:17Z</time></trkpt>
<trkpt lat="46.606851586337406" lon="7.298209629452687"><ele></ele><time>2014-8-4T8:57:20Z</time></trkpt>
<trkpt lat="46.60606574706737" lon="7.300007101756415"><ele></ele><time>2014-8-4T8:57:23Z</time></trkpt>
<trkpt lat="46.60608661268182" lon="7.300290998253811"><ele></ele><time>2014-8-4T8:57:26Z</time></trkpt>
<trkpt lat="46.606277877048306" lon="7.300877907870955"><ele></ele><time>2014-8-4T8:57:29Z</time></trkpt>
<trkpt lat="46.60628667005096" lon="7.301301865802196"><ele></ele><time>2014-8-4T8:57:32Z</time></trkpt>
<trkpt lat="46.605901500577524" lon="7.302367863542638"><ele></ele><time>2014-8-4T8:57:35Z</time></trkpt>
<trkpt lat="46.60579705868373" lon="7.302534240610239"><ele></ele><time>2014-8-4T8:57:38Z</time></trkpt>
<trkpt lat="46.60564618419527" lon="7.302528283558601"><ele></ele><time>2014-8-4T8:57:41Z</time></trkpt>
<trkpt lat="46.604942779759874" lon="7.302185435509276"><ele></ele><time>2014-8-4T8:57:44Z</time></trkpt>
<trkpt lat="46.60474789892473" lon="7.302246113017045"><ele></ele><time>2014-8-4T8:57:47Z</time></trkpt>
<trkpt lat="46.604198878064125" lon="7.3025091163011195"><ele></ele><time>2014-8-4T8:57:50Z</time></trkpt>
<trkpt lat="46.603747750579934" lon="7.3031683368707245"><ele></ele><time>2014-8-4T8:57:53Z</time></trkpt>
<trkpt lat="46.60340433955875" lon="7.303363454625643"><ele></ele><time>2014-8-4T8:57:56Z</time></trkpt>
<trkpt lat="46.6029771951082" lon="7.303454381825716"><ele></ele><time>2014-8-4T8:57:59Z</time></trkpt>
<trkpt lat="46.60259220602138" lon="7.303847814250846"><ele></ele><time>2014-8-4T8:58:2Z</time></trkpt>
<trkpt lat="46.60186339726708" lon="7.3038833251927855"><ele></ele><time>2014-8-4T8:58:5Z</time></trkpt>
<trkpt lat="46.60097707590349" lon="7.304784347344456"><ele></ele><time>2014-8-4T8:58:8Z</time></trkpt>
<trkpt lat="46.60072049705745" lon="7.3052212869886155"><ele></ele><time>2014-8-4T8:58:11Z</time></trkpt>
<trkpt lat="46.60014263651503" lon="7.305799449535676"><ele></ele><time>2014-8-4T8:58:14Z</time></trkpt>
<trkpt lat="46.59866211567533" lon="7.306974705206023"><ele></ele><time>2014-8-4T8:58:17Z</time></trkpt>
<trkpt lat="46.59601577677461" lon="7.3069162641068806"><ele></ele><time>2014-8-4T8:58:20Z</time></trkpt>
<trkpt lat="46.59488587863464" lon="7.307728763910777"><ele></ele><time>2014-8-4T8:58:23Z</time></trkpt>
<trkpt lat="46.59405993011238" lon="7.3074155831110055"><ele></ele><time>2014-8-4T8:58:26Z</time></trkpt>
<trkpt lat="46.5932756290767" lon="7.307669944038275"><ele></ele><time>2014-8-4T8:58:29Z</time></trkpt>
<trkpt lat="46.59253642958859" lon="7.307562375212612"><ele></ele><time>2014-8-4T8:58:32Z</time></trkpt>
<trkpt lat="46.590974397254044" lon="7.306382055598373"><ele></ele><time>2014-8-4T8:58:35Z</time></trkpt>
<trkpt lat="46.590145850126994" lon="7.306084381190764"><ele></ele><time>2014-8-4T8:58:38Z</time></trkpt>
<trkpt lat="46.58961319217021" lon="7.305393522153352"><ele></ele><time>2014-8-4T8:58:41Z</time></trkpt>
<trkpt lat="46.589070719812334" lon="7.305104324594627"><ele></ele><time>2014-8-4T8:58:44Z</time></trkpt>
<trkpt lat="46.58893477051146" lon="7.304816400149368"><ele></ele><time>2014-8-4T8:58:47Z</time></trkpt>
<trkpt lat="46.5886517170308" lon="7.304608182085939"><ele></ele><time>2014-8-4T8:58:50Z</time></trkpt>
<trkpt lat="46.58839037110442" lon="7.304485795786361"><ele></ele><time>2014-8-4T8:58:53Z</time></trkpt>
<trkpt lat="46.587161249155486" lon="7.304346356467303"><ele></ele><time>2014-8-4T8:58:56Z</time></trkpt>
<trkpt lat="46.58702462518636" lon="7.304277116432934"><ele></ele><time>2014-8-4T8:58:59Z</time></trkpt>
<trkpt lat="46.58668030478279" lon="7.303809810621672"><ele></ele><time>2014-8-4T8:59:2Z</time></trkpt>
<trkpt lat="46.586501938916626" lon="7.303737635282753"><ele></ele><time>2014-8-4T8:59:5Z</time></trkpt>
<trkpt lat="46.58585292597262" lon="7.303790248482205"><ele></ele><time>2014-8-4T8:59:8Z</time></trkpt>
<trkpt lat="46.585430395649546" lon="7.303674477604724"><ele></ele><time>2014-8-4T8:59:11Z</time></trkpt>
<trkpt lat="46.58487192083896" lon="7.3030171451329675"><ele></ele><time>2014-8-4T8:59:14Z</time></trkpt>
<trkpt lat="46.58491802691486" lon="7.302724533866638"><ele></ele><time>2014-8-4T8:59:17Z</time></trkpt>
<trkpt lat="46.585433674289" lon="7.303161000904576"><ele></ele><time>2014-8-4T8:59:20Z</time></trkpt>
<trkpt lat="46.58604530444032" lon="7.303078211323235"><ele></ele><time>2014-8-4T8:59:23Z</time></trkpt>
<trkpt lat="46.58634244174285" lon="7.303168747717493"><ele></ele><time>2014-8-4T8:59:26Z</time></trkpt>
<trkpt lat="46.586433388576914" lon="7.3030089079274125"><ele></ele><time>2014-8-4T8:59:29Z</time></trkpt>
<trkpt lat="46.58597440034542" lon="7.302710912537104"><ele></ele><time>2014-8-4T8:59:32Z</time></trkpt>
<trkpt lat="46.585394722037975" lon="7.301907901346867"><ele></ele><time>2014-8-4T8:59:35Z</time></trkpt>
<trkpt lat="46.584054981719646" lon="7.3005598675470464"><ele></ele><time>2014-8-4T8:59:38Z</time></trkpt>
<trkpt lat="46.582632603749204" lon="7.298790470919276"><ele></ele><time>2014-8-4T8:59:41Z</time></trkpt>
<trkpt lat="46.58174280340431" lon="7.297522669555927"><ele></ele><time>2014-8-4T8:59:44Z</time></trkpt>
<trkpt lat="46.58143385026359" lon="7.297293830830292"><ele></ele><time>2014-8-4T8:59:47Z</time></trkpt>
<trkpt lat="46.58093546344883" lon="7.2971883666553135"><ele></ele><time>2014-8-4T8:59:50Z</time></trkpt>
<trkpt lat="46.58081158080079" lon="7.297078139451307"><ele></ele><time>2014-8-4T8:59:53Z</time></trkpt>
<trkpt lat="46.58043071649299" lon="7.296550398348213"><ele></ele><time>2014-8-4T8:59:56Z</time></trkpt>
<trkpt lat="46.58028739241012" lon="7.296197429745009"><ele></ele><time>2014-8-4T8:59:59Z</time></trkpt>
<trkpt lat="46.58025262807959" lon="7.295112136351609"><ele></ele><time>2014-8-4T9:0:2Z</time></trkpt>
<trkpt lat="46.58019295059102" lon="7.295019429886728"><ele></ele><time>2014-8-4T9:0:5Z</time></trkpt>
<trkpt lat="46.57956901107779" lon="7.294472233135232"><ele></ele><time>2014-8-4T9:0:8Z</time></trkpt>
<trkpt lat="46.57910532164765" lon="7.294565421973774"><ele></ele><time>2014-8-4T9:0:11Z</time></trkpt>
<trkpt lat="46.57895293455871" lon="7.294767085185956"><ele></ele><time>2014-8-4T9:0:14Z</time></trkpt>
<trkpt lat="46.57884556262835" lon="7.2947446174038975"><ele></ele><time>2014-8-4T9:0:17Z</time></trkpt>
<trkpt lat="46.57871698525975" lon="7.294679484774189"><ele></ele><time>2014-8-4T9:0:20Z</time></trkpt>
<trkpt lat="46.57853921239872" lon="7.294280078909464"><ele></ele><time>2014-8-4T9:0:23Z</time></trkpt>
<trkpt lat="46.578100174086266" lon="7.293938665724331"><ele></ele><time>2014-8-4T9:0:26Z</time></trkpt>
<trkpt lat="46.57768426345277" lon="7.2939343746064145"><ele></ele><time>2014-8-4T9:0:29Z</time></trkpt>
<trkpt lat="46.577197866688174" lon="7.293626235804579"><ele></ele><time>2014-8-4T9:0:32Z</time></trkpt>
<trkpt lat="46.57679712655711" lon="7.293662681452572"><ele></ele><time>2014-8-4T9:0:35Z</time></trkpt>
<trkpt lat="46.576620941152896" lon="7.2935322517187835"><ele></ele><time>2014-8-4T9:0:38Z</time></trkpt>
<trkpt lat="46.576576105769234" lon="7.293119020864656"><ele></ele><time>2014-8-4T9:0:41Z</time></trkpt>
<trkpt lat="46.576809888363904" lon="7.292544867929211"><ele></ele><time>2014-8-4T9:0:44Z</time></trkpt>
<trkpt lat="46.57669457194075" lon="7.291561495505811"><ele></ele><time>2014-8-4T9:0:47Z</time></trkpt>
<trkpt lat="46.57654479197446" lon="7.291305505505376"><ele></ele><time>2014-8-4T9:0:50Z</time></trkpt>
<trkpt lat="46.57523964898753" lon="7.291031616518236"><ele></ele><time>2014-8-4T9:0:53Z</time></trkpt>
<trkpt lat="46.574626187652946" lon="7.29044921592152"><ele></ele><time>2014-8-4T9:0:56Z</time></trkpt>
<trkpt lat="46.57430835508624" lon="7.289941593760427"><ele></ele><time>2014-8-4T9:0:59Z</time></trkpt>
<trkpt lat="46.573804265395445" lon="7.290007372049489"><ele></ele><time>2014-8-4T9:1:2Z</time></trkpt>
<trkpt lat="46.57333471512109" lon="7.2897634394001125"><ele></ele><time>2014-8-4T9:1:5Z</time></trkpt>
<trkpt lat="46.57301528098612" lon="7.289727803613374"><ele></ele><time>2014-8-4T9:1:8Z</time></trkpt>
<trkpt lat="46.57098428537836" lon="7.288347890235037"><ele></ele><time>2014-8-4T9:1:11Z</time></trkpt>
<trkpt lat="46.570295717864646" lon="7.287990541383276"><ele></ele><time>2014-8-4T9:1:14Z</time></trkpt>
<trkpt lat="46.569010691542395" lon="7.28772411292702"><ele></ele><time>2014-8-4T9:1:17Z</time></trkpt>
<trkpt lat="46.56838650008856" lon="7.287214466897914"><ele></ele><time>2014-8-4T9:1:20Z</time></trkpt>
<trkpt lat="46.56767865070951" lon="7.287040430065883"><ele></ele><time>2014-8-4T9:1:23Z</time></trkpt>
<trkpt lat="46.567469357219395" lon="7.286887870656347"><ele></ele><time>2014-8-4T9:1:26Z</time></trkpt>
<trkpt lat="46.56729275581914" lon="7.286598519419371"><ele></ele><time>2014-8-4T9:1:29Z</time></trkpt>
<trkpt lat="46.56704391026051" lon="7.285894762645896"><ele></ele><time>2014-8-4T9:1:32Z</time></trkpt>
<trkpt lat="46.56657628568455" lon="7.285767422630308"><ele></ele><time>2014-8-4T9:1:35Z</time></trkpt>
<trkpt lat="46.56614880560482" lon="7.285894559636424"><ele></ele><time>2014-8-4T9:1:38Z</time></trkpt>
<trkpt lat="46.56537994454413" lon="7.285271500275469"><ele></ele><time>2014-8-4T9:1:41Z</time></trkpt>
<trkpt lat="46.56464283530212" lon="7.285464423204429"><ele></ele><time>2014-8-4T9:1:44Z</time></trkpt>
<trkpt lat="46.564101793242585" lon="7.28491722929929"><ele></ele><time>2014-8-4T9:1:47Z</time></trkpt>
<trkpt lat="46.562768998609236" lon="7.284213764834977"><ele></ele><time>2014-8-4T9:1:50Z</time></trkpt>
<trkpt lat="46.562109602386904" lon="7.283748709131995"><ele></ele><time>2014-8-4T9:1:53Z</time></trkpt>
<trkpt lat="46.562067109408396" lon="7.2835757043640745"><ele></ele><time>2014-8-4T9:1:56Z</time></trkpt>
<trkpt lat="46.56213114892636" lon="7.283487361331216"><ele></ele><time>2014-8-4T9:1:59Z</time></trkpt>
<trkpt lat="46.56251822256141" lon="7.283650824335904"><ele></ele><time>2014-8-4T9:2:2Z</time></trkpt>
<trkpt lat="46.5628421864347" lon="7.283499627101664"><ele></ele><time>2014-8-4T9:2:5Z</time></trkpt>
<trkpt lat="46.564079460127864" lon="7.2824917487661445"><ele></ele><time>2014-8-4T9:2:8Z</time></trkpt>
<trkpt lat="46.564182895165786" lon="7.282376417480809"><ele></ele><time>2014-8-4T9:2:11Z</time></trkpt>
<trkpt lat="46.56420435679494" lon="7.282172150650322"><ele></ele><time>2014-8-4T9:2:14Z</time></trkpt>
<trkpt lat="46.56402356075135" lon="7.2820763380034"><ele></ele><time>2014-8-4T9:2:17Z</time></trkpt>
<trkpt lat="46.563684339871436" lon="7.282326860508655"><ele></ele><time>2014-8-4T9:2:20Z</time></trkpt>
<trkpt lat="46.563243459116904" lon="7.281915206351068"><ele></ele><time>2014-8-4T9:2:23Z</time></trkpt>
<trkpt lat="46.562995019149355" lon="7.281917291986941"><ele></ele><time>2014-8-4T9:2:26Z</time></trkpt>
<trkpt lat="46.56284514793355" lon="7.282052235155997"><ele></ele><time>2014-8-4T9:2:29Z</time></trkpt>
<trkpt lat="46.562316668712484" lon="7.282029247716502"><ele></ele><time>2014-8-4T9:2:32Z</time></trkpt>
<trkpt lat="46.56163640031926" lon="7.281628145282393"><ele></ele><time>2014-8-4T9:2:35Z</time></trkpt>
<trkpt lat="46.5613330641522" lon="7.281353624962765"><ele></ele><time>2014-8-4T9:2:38Z</time></trkpt>
<trkpt lat="46.56127464506982" lon="7.2812053462576785"><ele></ele><time>2014-8-4T9:2:41Z</time></trkpt>
<trkpt lat="46.561322592013326" lon="7.281080792640172"><ele></ele><time>2014-8-4T9:2:44Z</time></trkpt>
<trkpt lat="46.56212565961184" lon="7.28126480790799"><ele></ele><time>2014-8-4T9:2:47Z</time></trkpt>
<trkpt lat="46.56249094426492" lon="7.281220481971541"><ele></ele><time>2014-8-4T9:2:50Z</time></trkpt>
<trkpt lat="46.56292119086761" lon="7.281066355300027"><ele></ele><time>2014-8-4T9:2:53Z</time></trkpt>
<trkpt lat="46.5630005724681" lon="7.2808131402762335"><ele></ele><time>2014-8-4T9:2:56Z</time></trkpt>
<trkpt lat="46.56279999697547" lon="7.28062076697413"><ele></ele><time>2014-8-4T9:2:59Z</time></trkpt>
<trkpt lat="46.56175855417421" lon="7.280102973682806"><ele></ele><time>2014-8-4T9:3:2Z</time></trkpt>
<trkpt lat="46.56119521505275" lon="7.279621157833914"><ele></ele><time>2014-8-4T9:3:5Z</time></trkpt>
<trkpt lat="46.56001339383326" lon="7.278140610091094"><ele></ele><time>2014-8-4T9:3:8Z</time></trkpt>
<trkpt lat="46.55977301056522" lon="7.27762259707573"><ele></ele><time>2014-8-4T9:3:11Z</time></trkpt>
<trkpt lat="46.55960990005202" lon="7.277544051876808"><ele></ele><time>2014-8-4T9:3:14Z</time></trkpt>
<trkpt lat="46.558263510554525" lon="7.277689508696465"><ele></ele><time>2014-8-4T9:3:17Z</time></trkpt>
<trkpt lat="46.557723641932654" lon="7.277152037651281"><ele></ele><time>2014-8-4T9:3:20Z</time></trkpt>
<trkpt lat="46.557404308456476" lon="7.276251972917913"><ele></ele><time>2014-8-4T9:3:23Z</time></trkpt>
<trkpt lat="46.556837449789484" lon="7.27573059407378"><ele></ele><time>2014-8-4T9:3:26Z</time></trkpt>
<trkpt lat="46.55652892450113" lon="7.27506337985551"><ele></ele><time>2014-8-4T9:3:29Z</time></trkpt>
<trkpt lat="46.55611087433974" lon="7.2730179198661125"><ele></ele><time>2014-8-4T9:3:32Z</time></trkpt>
<trkpt lat="46.5559721877034" lon="7.271265335764841"><ele></ele><time>2014-8-4T9:3:35Z</time></trkpt>
<trkpt lat="46.555908991008124" lon="7.271114793705909"><ele></ele><time>2014-8-4T9:3:38Z</time></trkpt>
<trkpt lat="46.555797595739676" lon="7.271096935734881"><ele></ele><time>2014-8-4T9:3:41Z</time></trkpt>
<trkpt lat="46.55533792310771" lon="7.271537723278693"><ele></ele><time>2014-8-4T9:3:44Z</time></trkpt>
<trkpt lat="46.55513240127616" lon="7.271400921902777"><ele></ele><time>2014-8-4T9:3:47Z</time></trkpt>
<trkpt lat="46.553806103112585" lon="7.26854137196622"><ele></ele><time>2014-8-4T9:3:50Z</time></trkpt>
<trkpt lat="46.55341811491979" lon="7.268001727483874"><ele></ele><time>2014-8-4T9:3:53Z</time></trkpt>
<trkpt lat="46.552035565862454" lon="7.26557702979412"><ele></ele><time>2014-8-4T9:3:56Z</time></trkpt>
<trkpt lat="46.55132095700145" lon="7.263892148348469"><ele></ele><time>2014-8-4T9:3:59Z</time></trkpt>
<trkpt lat="46.550728373326635" lon="7.2629994484376255"><ele></ele><time>2014-8-4T9:4:2Z</time></trkpt>
<trkpt lat="46.5505900832657" lon="7.26241304268788"><ele></ele><time>2014-8-4T9:4:5Z</time></trkpt>
<trkpt lat="46.54998936563747" lon="7.26170072165382"><ele></ele><time>2014-8-4T9:4:8Z</time></trkpt>
<trkpt lat="46.54980020770729" lon="7.26058801211256"><ele></ele><time>2014-8-4T9:4:11Z</time></trkpt>
<trkpt lat="46.549383980763906" lon="7.2596315326832315"><ele></ele><time>2014-8-4T9:4:14Z</time></trkpt>
<trkpt lat="46.54879030701782" lon="7.258765151880756"><ele></ele><time>2014-8-4T9:4:17Z</time></trkpt>
<trkpt lat="46.54832612042626" lon="7.258580311472574"><ele></ele><time>2014-8-4T9:4:20Z</time></trkpt>
<trkpt lat="46.547843084127244" lon="7.257907557809757"><ele></ele><time>2014-8-4T9:4:23Z</time></trkpt>
<trkpt lat="46.54693852304853" lon="7.257159182040689"><ele></ele><time>2014-8-4T9:4:26Z</time></trkpt>
<trkpt lat="46.54666258879163" lon="7.257248941433115"><ele></ele><time>2014-8-4T9:4:29Z</time></trkpt>
<trkpt lat="46.54575080643945" lon="7.2571546916455345"><ele></ele><time>2014-8-4T9:4:32Z</time></trkpt>
<trkpt lat="46.54513003520204" lon="7.2575092224909"><ele></ele><time>2014-8-4T9:4:35Z</time></trkpt>
<trkpt lat="46.54425118635772" lon="7.2577930832040245"><ele></ele><time>2014-8-4T9:4:38Z</time></trkpt>
<trkpt lat="46.54422905585552" lon="7.2579080824836275"><ele></ele><time>2014-8-4T9:4:41Z</time></trkpt>
<trkpt lat="46.54431144830217" lon="7.257996012326432"><ele></ele><time>2014-8-4T9:4:44Z</time></trkpt>
<trkpt lat="46.5447458840154" lon="7.257928890549073"><ele></ele><time>2014-8-4T9:4:47Z</time></trkpt>
<trkpt lat="46.545037150926326" lon="7.258156052788219"><ele></ele><time>2014-8-4T9:4:50Z</time></trkpt>
<trkpt lat="46.54564540186156" lon="7.2593927482411384"><ele></ele><time>2014-8-4T9:4:53Z</time></trkpt>
<trkpt lat="46.545833227990684" lon="7.260028777149706"><ele></ele><time>2014-8-4T9:4:56Z</time></trkpt>
<trkpt lat="46.545792992958724" lon="7.260123742867906"><ele></ele><time>2014-8-4T9:4:59Z</time></trkpt>
<trkpt lat="46.54486547156863" lon="7.259064396334559"><ele></ele><time>2014-8-4T9:5:2Z</time></trkpt>
<trkpt lat="46.544656261528274" lon="7.258940419052902"><ele></ele><time>2014-8-4T9:5:5Z</time></trkpt>
<trkpt lat="46.54381723253663" lon="7.25893066216338"><ele></ele><time>2014-8-4T9:5:8Z</time></trkpt>
<trkpt lat="46.54290100283231" lon="7.2590911393022814"><ele></ele><time>2014-8-4T9:5:11Z</time></trkpt>
<trkpt lat="46.54212250090072" lon="7.258590622424559"><ele></ele><time>2014-8-4T9:5:14Z</time></trkpt>
<trkpt lat="46.5404433638157" lon="7.2580406157372686"><ele></ele><time>2014-8-4T9:5:17Z</time></trkpt>
<trkpt lat="46.54011353298882" lon="7.258178233842855"><ele></ele><time>2014-8-4T9:5:20Z</time></trkpt>
<trkpt lat="46.53985794593497" lon="7.259331410545389"><ele></ele><time>2014-8-4T9:5:23Z</time></trkpt>
<trkpt lat="46.53973774581465" lon="7.259512036460886"><ele></ele><time>2014-8-4T9:5:26Z</time></trkpt>
<trkpt lat="46.53937262599077" lon="7.259709248740691"><ele></ele><time>2014-8-4T9:5:29Z</time></trkpt>
<trkpt lat="46.53930774709494" lon="7.259858109344986"><ele></ele><time>2014-8-4T9:5:32Z</time></trkpt>
<trkpt lat="46.538725113816255" lon="7.260204511364076"><ele></ele><time>2014-8-4T9:5:35Z</time></trkpt>
<trkpt lat="46.53793017330267" lon="7.260219482995983"><ele></ele><time>2014-8-4T9:5:38Z</time></trkpt>
<trkpt lat="46.53714352656399" lon="7.26045523522539"><ele></ele><time>2014-8-4T9:5:41Z</time></trkpt>
<trkpt lat="46.53661220546156" lon="7.260043828261718"><ele></ele><time>2014-8-4T9:5:44Z</time></trkpt>
<trkpt lat="46.535791120594624" lon="7.25969401685235"><ele></ele><time>2014-8-4T9:5:47Z</time></trkpt>
<trkpt lat="46.5337994488266" lon="7.257800288787237"><ele></ele><time>2014-8-4T9:5:50Z</time></trkpt>
<trkpt lat="46.53371881751261" lon="7.257666090680704"><ele></ele><time>2014-8-4T9:5:53Z</time></trkpt>
<trkpt lat="46.533771792057514" lon="7.257620914166342"><ele></ele><time>2014-8-4T9:5:56Z</time></trkpt>
<trkpt lat="46.53367044292125" lon="7.258224912631915"><ele></ele><time>2014-8-4T9:5:59Z</time></trkpt>
<trkpt lat="46.53399421447431" lon="7.259321702471358"><ele></ele><time>2014-8-4T9:6:2Z</time></trkpt>
<trkpt lat="46.53407541496536" lon="7.260350840263976"><ele></ele><time>2014-8-4T9:6:5Z</time></trkpt>
<trkpt lat="46.53406331053768" lon="7.262110041216756"><ele></ele><time>2014-8-4T9:6:8Z</time></trkpt>
<trkpt lat="46.533820809248375" lon="7.262758542112978"><ele></ele><time>2014-8-4T9:6:11Z</time></trkpt>
<trkpt lat="46.53364957011268" lon="7.262593075738256"><ele></ele><time>2014-8-4T9:6:14Z</time></trkpt>
<trkpt lat="46.53337782317102" lon="7.262873775961292"><ele></ele><time>2014-8-4T9:6:17Z</time></trkpt>
<trkpt lat="46.5329699564254" lon="7.263033267866665"><ele></ele><time>2014-8-4T9:6:20Z</time></trkpt>
<trkpt lat="46.532781411386544" lon="7.264871084390425"><ele></ele><time>2014-8-4T9:6:23Z</time></trkpt>
<trkpt lat="46.53277024922663" lon="7.265599223048249"><ele></ele><time>2014-8-4T9:6:26Z</time></trkpt>
<trkpt lat="46.53288137035394" lon="7.266775968027657"><ele></ele><time>2014-8-4T9:6:29Z</time></trkpt>
<trkpt lat="46.53269770972052" lon="7.267444587997709"><ele></ele><time>2014-8-4T9:6:32Z</time></trkpt>
<trkpt lat="46.53211028998329" lon="7.268248224849952"><ele></ele><time>2014-8-4T9:6:35Z</time></trkpt>
<trkpt lat="46.531941552432514" lon="7.268749039003517"><ele></ele><time>2014-8-4T9:6:38Z</time></trkpt>
<trkpt lat="46.53202193261942" lon="7.268867395214981"><ele></ele><time>2014-8-4T9:6:41Z</time></trkpt>
<trkpt lat="46.53227707737974" lon="7.268893137987912"><ele></ele><time>2014-8-4T9:6:44Z</time></trkpt>
<trkpt lat="46.532318642047436" lon="7.269385913898535"><ele></ele><time>2014-8-4T9:6:47Z</time></trkpt>
<trkpt lat="46.53265684404616" lon="7.269795385196281"><ele></ele><time>2014-8-4T9:6:50Z</time></trkpt>
<trkpt lat="46.53278734950321" lon="7.269838725047379"><ele></ele><time>2014-8-4T9:6:53Z</time></trkpt>
<trkpt lat="46.53312924995801" lon="7.269713093452795"><ele></ele><time>2014-8-4T9:6:56Z</time></trkpt>
<trkpt lat="46.53332915406509" lon="7.269938743267888"><ele></ele><time>2014-8-4T9:6:59Z</time></trkpt>
<trkpt lat="46.53329495419263" lon="7.2700255787942325"><ele></ele><time>2014-8-4T9:7:2Z</time></trkpt>
<trkpt lat="46.53302195605161" lon="7.269995225249842"><ele></ele><time>2014-8-4T9:7:5Z</time></trkpt>
<trkpt lat="46.53255641592245" lon="7.2704571353275504"><ele></ele><time>2014-8-4T9:7:8Z</time></trkpt>
<trkpt lat="46.53241735259895" lon="7.270841776986278"><ele></ele><time>2014-8-4T9:7:11Z</time></trkpt>
<trkpt lat="46.532468391872925" lon="7.271178397732094"><ele></ele><time>2014-8-4T9:7:14Z</time></trkpt>
<trkpt lat="46.532595122688605" lon="7.271364984778921"><ele></ele><time>2014-8-4T9:7:17Z</time></trkpt>
<trkpt lat="46.532788815736886" lon="7.272025740834246"><ele></ele><time>2014-8-4T9:7:20Z</time></trkpt>
<trkpt lat="46.532888041775294" lon="7.272836948928959"><ele></ele><time>2014-8-4T9:7:23Z</time></trkpt>
<trkpt lat="46.5333429937634" lon="7.273762752327981"><ele></ele><time>2014-8-4T9:7:26Z</time></trkpt>
<trkpt lat="46.53371136823614" lon="7.274297786227483"><ele></ele><time>2014-8-4T9:7:29Z</time></trkpt>
<trkpt lat="46.53369745076237" lon="7.274478751747854"><ele></ele><time>2014-8-4T9:7:32Z</time></trkpt>
<trkpt lat="46.53341103846956" lon="7.2746080736559815"><ele></ele><time>2014-8-4T9:7:35Z</time></trkpt>
<trkpt lat="46.533332076862244" lon="7.274816445527859"><ele></ele><time>2014-8-4T9:7:38Z</time></trkpt>
<trkpt lat="46.53356792876144" lon="7.275590191775592"><ele></ele><time>2014-8-4T9:7:41Z</time></trkpt>
<trkpt lat="46.533502943637544" lon="7.276899867254414"><ele></ele><time>2014-8-4T9:7:44Z</time></trkpt>
<trkpt lat="46.53377032057316" lon="7.277206153968361"><ele></ele><time>2014-8-4T9:7:47Z</time></trkpt>
<trkpt lat="46.533459928164895" lon="7.277742418116143"><ele></ele><time>2014-8-4T9:7:50Z</time></trkpt>
<trkpt lat="46.53332371373646" lon="7.278178692658942"><ele></ele><time>2014-8-4T9:7:53Z</time></trkpt>
<trkpt lat="46.53339470673159" lon="7.278269974804884"><ele></ele><time>2014-8-4T9:7:56Z</time></trkpt>
<trkpt lat="46.53366049657885" lon="7.27829311952602"><ele></ele><time>2014-8-4T9:7:59Z</time></trkpt>
<trkpt lat="46.533682956456104" lon="7.2784813787824625"><ele></ele><time>2014-8-4T9:8:2Z</time></trkpt>
<trkpt lat="46.533541715497535" lon="7.2787824524394535"><ele></ele><time>2014-8-4T9:8:5Z</time></trkpt>
<trkpt lat="46.5338566180142" lon="7.279080778184048"><ele></ele><time>2014-8-4T9:8:8Z</time></trkpt>
<trkpt lat="46.53356885271634" lon="7.279827346113038"><ele></ele><time>2014-8-4T9:8:11Z</time></trkpt>
<trkpt lat="46.53346984453258" lon="7.280753378875523"><ele></ele><time>2014-8-4T9:8:14Z</time></trkpt>
<trkpt lat="46.53300196652376" lon="7.280749336976663"><ele></ele><time>2014-8-4T9:8:17Z</time></trkpt>
<trkpt lat="46.53198932729629" lon="7.281838446079352"><ele></ele><time>2014-8-4T9:8:20Z</time></trkpt>
<trkpt lat="46.53076328430576" lon="7.282951016226925"><ele></ele><time>2014-8-4T9:8:23Z</time></trkpt>
<trkpt lat="46.52978652660735" lon="7.283682637124258"><ele></ele><time>2014-8-4T9:8:26Z</time></trkpt>
<trkpt lat="46.529393218376725" lon="7.285200423376676"><ele></ele><time>2014-8-4T9:8:29Z</time></trkpt>
<trkpt lat="46.529092467704714" lon="7.285609617831483"><ele></ele><time>2014-8-4T9:8:32Z</time></trkpt>
<trkpt lat="46.5285231466597" lon="7.286753311164012"><ele></ele><time>2014-8-4T9:8:35Z</time></trkpt>
<trkpt lat="46.527809907617005" lon="7.287933125022477"><ele></ele><time>2014-8-4T9:8:38Z</time></trkpt>
<trkpt lat="46.52699449313128" lon="7.289115030388773"><ele></ele><time>2014-8-4T9:8:41Z</time></trkpt>
<trkpt lat="46.52633842934209" lon="7.289741470826938"><ele></ele><time>2014-8-4T9:8:44Z</time></trkpt>
<trkpt lat="46.52582099694246" lon="7.290648125061935"><ele></ele><time>2014-8-4T9:8:47Z</time></trkpt>
<trkpt lat="46.52532746330554" lon="7.2910148993951465"><ele></ele><time>2014-8-4T9:8:50Z</time></trkpt>
<trkpt lat="46.5251342530293" lon="7.291399371459535"><ele></ele><time>2014-8-4T9:8:53Z</time></trkpt>
<trkpt lat="46.52438222055715" lon="7.291811817222396"><ele></ele><time>2014-8-4T9:8:56Z</time></trkpt>
<trkpt lat="46.523739818011734" lon="7.292508163699775"><ele></ele><time>2014-8-4T9:8:59Z</time></trkpt>
<trkpt lat="46.52349899621581" lon="7.293013920624315"><ele></ele><time>2014-8-4T9:9:2Z</time></trkpt>
<trkpt lat="46.52284854686806" lon="7.293720828075455"><ele></ele><time>2014-8-4T9:9:5Z</time></trkpt>
<trkpt lat="46.52275131173342" lon="7.293984855442296"><ele></ele><time>2014-8-4T9:9:8Z</time></trkpt>
<trkpt lat="46.52272263785366" lon="7.294392384359223"><ele></ele><time>2014-8-4T9:9:11Z</time></trkpt>
<trkpt lat="46.522326997912074" lon="7.295127968101119"><ele></ele><time>2014-8-4T9:9:14Z</time></trkpt>
<trkpt lat="46.52147689010326" lon="7.2959149153405365"><ele></ele><time>2014-8-4T9:9:17Z</time></trkpt>
<trkpt lat="46.52123808049461" lon="7.29639502365951"><ele></ele><time>2014-8-4T9:9:20Z</time></trkpt>
<trkpt lat="46.52066199036164" lon="7.296489465565009"><ele></ele><time>2014-8-4T9:9:23Z</time></trkpt>
<trkpt lat="46.52043634568828" lon="7.29668886314244"><ele></ele><time>2014-8-4T9:9:26Z</time></trkpt>
<trkpt lat="46.51984163126941" lon="7.297650164894449"><ele></ele><time>2014-8-4T9:9:29Z</time></trkpt>
<trkpt lat="46.51936293555436" lon="7.297920379993534"><ele></ele><time>2014-8-4T9:9:32Z</time></trkpt>
<trkpt lat="46.51871669186186" lon="7.297859334130513"><ele></ele><time>2014-8-4T9:9:35Z</time></trkpt>
<trkpt lat="46.51738700370141" lon="7.296955708493119"><ele></ele><time>2014-8-4T9:9:38Z</time></trkpt>
<trkpt lat="46.51683296171892" lon="7.296856276917792"><ele></ele><time>2014-8-4T9:9:41Z</time></trkpt>
<trkpt lat="46.51665056960254" lon="7.2969552605263495"><ele></ele><time>2014-8-4T9:9:44Z</time></trkpt>
<trkpt lat="46.51685028378269" lon="7.298355639740368"><ele></ele><time>2014-8-4T9:9:47Z</time></trkpt>
<trkpt lat="46.51640374912003" lon="7.299970403790501"><ele></ele><time>2014-8-4T9:9:50Z</time></trkpt>
<trkpt lat="46.51634480771351" lon="7.300847655759927"><ele></ele><time>2014-8-4T9:9:53Z</time></trkpt>
<trkpt lat="46.51641495134113" lon="7.301529529656755"><ele></ele><time>2014-8-4T9:9:56Z</time></trkpt>
<trkpt lat="46.516912958435825" lon="7.303944135722497"><ele></ele><time>2014-8-4T9:9:59Z</time></trkpt>
<trkpt lat="46.51772547034224" lon="7.3055284386015416"><ele></ele><time>2014-8-4T9:10:2Z</time></trkpt>
<trkpt lat="46.518783610179106" lon="7.30954502333881"><ele></ele><time>2014-8-4T9:10:5Z</time></trkpt>
<trkpt lat="46.51874312071331" lon="7.309804023823805"><ele></ele><time>2014-8-4T9:10:8Z</time></trkpt>
<trkpt lat="46.51855729219326" lon="7.309894206325625"><ele></ele><time>2014-8-4T9:10:11Z</time></trkpt>
<trkpt lat="46.51790904117766" lon="7.309602405706496"><ele></ele><time>2014-8-4T9:10:14Z</time></trkpt>
<trkpt lat="46.517778609891565" lon="7.310073633525917"><ele></ele><time>2014-8-4T9:10:17Z</time></trkpt>
<trkpt lat="46.51751054862532" lon="7.310497665666982"><ele></ele><time>2014-8-4T9:10:20Z</time></trkpt>
<trkpt lat="46.51743199935838" lon="7.311074256542676"><ele></ele><time>2014-8-4T9:10:23Z</time></trkpt>
<trkpt lat="46.51733032233842" lon="7.311315149669822"><ele></ele><time>2014-8-4T9:10:26Z</time></trkpt>
<trkpt lat="46.51718369851486" lon="7.312611998360682"><ele></ele><time>2014-8-4T9:10:29Z</time></trkpt>
<trkpt lat="46.51743210694299" lon="7.314279092808783"><ele></ele><time>2014-8-4T9:10:32Z</time></trkpt>
<trkpt lat="46.51743768818852" lon="7.316131418816097"><ele></ele><time>2014-8-4T9:10:35Z</time></trkpt>
<trkpt lat="46.51799916794135" lon="7.317418404148979"><ele></ele><time>2014-8-4T9:10:38Z</time></trkpt>
<trkpt lat="46.51808256095347" lon="7.317790314211635"><ele></ele><time>2014-8-4T9:10:41Z</time></trkpt>
<trkpt lat="46.51802363627567" lon="7.317784360759185"><ele></ele><time>2014-8-4T9:10:44Z</time></trkpt>
<trkpt lat="46.518075853411624" lon="7.317898524847275"><ele></ele><time>2014-8-4T9:10:47Z</time></trkpt>
<trkpt lat="46.51803251561395" lon="7.318078232051235"><ele></ele><time>2014-8-4T9:10:50Z</time></trkpt>
<trkpt lat="46.51788314652646" lon="7.318268580236926"><ele></ele><time>2014-8-4T9:10:53Z</time></trkpt>
<trkpt lat="46.51750948131674" lon="7.3182637043050045"><ele></ele><time>2014-8-4T9:10:56Z</time></trkpt>
<trkpt lat="46.51751232845776" lon="7.31840887968372"><ele></ele><time>2014-8-4T9:10:59Z</time></trkpt>
<trkpt lat="46.51809134512256" lon="7.318693049896151"><ele></ele><time>2014-8-4T9:11:2Z</time></trkpt>
<trkpt lat="46.51842711320998" lon="7.319283989866337"><ele></ele><time>2014-8-4T9:11:5Z</time></trkpt>
<trkpt lat="46.51884268040351" lon="7.319694218192721"><ele></ele><time>2014-8-4T9:11:8Z</time></trkpt>
<trkpt lat="46.51909002131391" lon="7.320182978844212"><ele></ele><time>2014-8-4T9:11:11Z</time></trkpt>
<trkpt lat="46.51975745453094" lon="7.3211433237853685"><ele></ele><time>2014-8-4T9:11:14Z</time></trkpt>
<trkpt lat="46.52032800339845" lon="7.321541571851474"><ele></ele><time>2014-8-4T9:11:17Z</time></trkpt>
<trkpt lat="46.52114161147196" lon="7.322804259029452"><ele></ele><time>2014-8-4T9:11:20Z</time></trkpt>
<trkpt lat="46.521484750586446" lon="7.323671048928069"><ele></ele><time>2014-8-4T9:11:23Z</time></trkpt>
<trkpt lat="46.521619260819605" lon="7.324714438343652"><ele></ele><time>2014-8-4T9:11:26Z</time></trkpt>
<trkpt lat="46.52240360809668" lon="7.326411644183358"><ele></ele><time>2014-8-4T9:11:29Z</time></trkpt>
<trkpt lat="46.52248372313132" lon="7.327275657904374"><ele></ele><time>2014-8-4T9:11:32Z</time></trkpt>
<trkpt lat="46.522384966903005" lon="7.32821610809806"><ele></ele><time>2014-8-4T9:11:35Z</time></trkpt>
<trkpt lat="46.52277286122054" lon="7.329313905957993"><ele></ele><time>2014-8-4T9:11:38Z</time></trkpt>
<trkpt lat="46.52304582297471" lon="7.3313157757294425"><ele></ele><time>2014-8-4T9:11:41Z</time></trkpt>
<trkpt lat="46.522919217249424" lon="7.3334322114061035"><ele></ele><time>2014-8-4T9:11:44Z</time></trkpt>
<trkpt lat="46.52328868190873" lon="7.333962215701451"><ele></ele><time>2014-8-4T9:11:47Z</time></trkpt>
<trkpt lat="46.52331264175555" lon="7.334637382082322"><ele></ele><time>2014-8-4T9:11:50Z</time></trkpt>
<trkpt lat="46.523551011030946" lon="7.335297720577338"><ele></ele><time>2014-8-4T9:11:53Z</time></trkpt>
<trkpt lat="46.523247396579585" lon="7.336487525773702"><ele></ele><time>2014-8-4T9:11:56Z</time></trkpt>
<trkpt lat="46.52324705702244" lon="7.336721046679672"><ele></ele><time>2014-8-4T9:11:59Z</time></trkpt>
<trkpt lat="46.52330580860035" lon="7.337025564882783"><ele></ele><time>2014-8-4T9:12:2Z</time></trkpt>
<trkpt lat="46.523826815693525" lon="7.337689853600976"><ele></ele><time>2014-8-4T9:12:5Z</time></trkpt>
<trkpt lat="46.52406090526152" lon="7.338621934471898"><ele></ele><time>2014-8-4T9:12:8Z</time></trkpt>
<trkpt lat="46.5243091689097" lon="7.339081358142601"><ele></ele><time>2014-8-4T9:12:11Z</time></trkpt>
<trkpt lat="46.52447838411294" lon="7.33992794072199"><ele></ele><time>2014-8-4T9:12:14Z</time></trkpt>
<trkpt lat="46.52446865277972" lon="7.34038341509389"><ele></ele><time>2014-8-4T9:12:17Z</time></trkpt>
<trkpt lat="46.524161532362896" lon="7.34078766454052"><ele></ele><time>2014-8-4T9:12:20Z</time></trkpt>
<trkpt lat="46.52379346885037" lon="7.3415560232663735"><ele></ele><time>2014-8-4T9:12:23Z</time></trkpt>
<trkpt lat="46.523840905320085" lon="7.341836484853532"><ele></ele><time>2014-8-4T9:12:26Z</time></trkpt>
<trkpt lat="46.523928074995524" lon="7.34195408680225"><ele></ele><time>2014-8-4T9:12:29Z</time></trkpt>
<trkpt lat="46.5243941925562" lon="7.34196650970643"><ele></ele><time>2014-8-4T9:12:32Z</time></trkpt>
<trkpt lat="46.524746145094895" lon="7.342169030740553"><ele></ele><time>2014-8-4T9:12:35Z</time></trkpt>
<trkpt lat="46.52489458056134" lon="7.342612692550318"><ele></ele><time>2014-8-4T9:12:38Z</time></trkpt>
<trkpt lat="46.52566402779029" lon="7.343257712068382"><ele></ele><time>2014-8-4T9:12:41Z</time></trkpt>
<trkpt lat="46.52562646745029" lon="7.343773786814381"><ele></ele><time>2014-8-4T9:12:44Z</time></trkpt>
<trkpt lat="46.52632533197206" lon="7.344808061002023"><ele></ele><time>2014-8-4T9:12:47Z</time></trkpt>
<trkpt lat="46.5271660279526" lon="7.345315954564089"><ele></ele><time>2014-8-4T9:12:50Z</time></trkpt>
<trkpt lat="46.527895073457756" lon="7.34601646090297"><ele></ele><time>2014-8-4T9:12:53Z</time></trkpt>
<trkpt lat="46.52936245381099" lon="7.348224487115898"><ele></ele><time>2014-8-4T9:12:56Z</time></trkpt>
<trkpt lat="46.52937745438329" lon="7.348392210319533"><ele></ele><time>2014-8-4T9:12:59Z</time></trkpt>
<trkpt lat="46.52938207314534" lon="7.347911757636022"><ele></ele><time>2014-8-4T9:13:2Z</time></trkpt>
<trkpt lat="46.529068784520355" lon="7.346421101444935"><ele></ele><time>2014-8-4T9:13:5Z</time></trkpt>
<trkpt lat="46.52910952816586" lon="7.346004017593706"><ele></ele><time>2014-8-4T9:13:8Z</time></trkpt>
<trkpt lat="46.52941925577982" lon="7.345115627346662"><ele></ele><time>2014-8-4T9:13:11Z</time></trkpt>
<trkpt lat="46.52940946130472" lon="7.344436438300308"><ele></ele><time>2014-8-4T9:13:14Z</time></trkpt>
<trkpt lat="46.52902148741347" lon="7.343086428227226"><ele></ele><time>2014-8-4T9:13:17Z</time></trkpt>
<trkpt lat="46.52867231085815" lon="7.342335560743937"><ele></ele><time>2014-8-4T9:13:20Z</time></trkpt>
<trkpt lat="46.5287658677465" lon="7.341523773283139"><ele></ele><time>2014-8-4T9:13:23Z</time></trkpt>
<trkpt lat="46.52896518544296" lon="7.341745734624188"><ele></ele><time>2014-8-4T9:13:26Z</time></trkpt>
<trkpt lat="46.529538502936035" lon="7.342016828281926"><ele></ele><time>2014-8-4T9:13:29Z</time></trkpt>
<trkpt lat="46.53024533549048" lon="7.342766787253835"><ele></ele><time>2014-8-4T9:13:32Z</time></trkpt>
<trkpt lat="46.53017140610969" lon="7.3428194230475015"><ele></ele><time>2014-8-4T9:13:35Z</time></trkpt>
<trkpt lat="46.53019621934157" lon="7.342666537385814"><ele></ele><time>2014-8-4T9:13:38Z</time></trkpt>
<trkpt lat="46.52954697616075" lon="7.341605778219296"><ele></ele><time>2014-8-4T9:13:41Z</time></trkpt>
<trkpt lat="46.52845701265039" lon="7.340528406079269"><ele></ele><time>2014-8-4T9:13:44Z</time></trkpt>
<trkpt lat="46.528335562665376" lon="7.340317930936016"><ele></ele><time>2014-8-4T9:13:47Z</time></trkpt>
<trkpt lat="46.52807851011252" lon="7.339194824886156"><ele></ele><time>2014-8-4T9:13:50Z</time></trkpt>
<trkpt lat="46.52765942045972" lon="7.338884174251295"><ele></ele><time>2014-8-4T9:13:53Z</time></trkpt>
<trkpt lat="46.527468653642934" lon="7.338590212331368"><ele></ele><time>2014-8-4T9:13:56Z</time></trkpt>
<trkpt lat="46.527300857721926" lon="7.338052085323718"><ele></ele><time>2014-8-4T9:13:59Z</time></trkpt>
<trkpt lat="46.52739389661325" lon="7.338066924890193"><ele></ele><time>2014-8-4T9:14:2Z</time></trkpt>
<trkpt lat="46.527533533443865" lon="7.338380163339611"><ele></ele><time>2014-8-4T9:14:5Z</time></trkpt>
<trkpt lat="46.52794155759566" lon="7.338766251034418"><ele></ele><time>2014-8-4T9:14:8Z</time></trkpt>
<trkpt lat="46.5284604775392" lon="7.3389796749348255"><ele></ele><time>2014-8-4T9:14:11Z</time></trkpt>
<trkpt lat="46.52871812702497" lon="7.339544627535629"><ele></ele><time>2014-8-4T9:14:14Z</time></trkpt>
<trkpt lat="46.52936444771566" lon="7.339990738927185"><ele></ele><time>2014-8-4T9:14:17Z</time></trkpt>
<trkpt lat="46.52983248457" lon="7.340474394644774"><ele></ele><time>2014-8-4T9:14:20Z</time></trkpt>
<trkpt lat="46.52994295843192" lon="7.3404565452942405"><ele></ele><time>2014-8-4T9:14:23Z</time></trkpt>
<trkpt lat="46.5299851231531" lon="7.3402524466322"><ele></ele><time>2014-8-4T9:14:26Z</time></trkpt>
<trkpt lat="46.52959545912897" lon="7.339659409554362"><ele></ele><time>2014-8-4T9:14:29Z</time></trkpt>
<trkpt lat="46.52905140932025" lon="7.338578118543645"><ele></ele><time>2014-8-4T9:14:32Z</time></trkpt>
<trkpt lat="46.52890776427536" lon="7.337439761677555"><ele></ele><time>2014-8-4T9:14:35Z</time></trkpt>
<trkpt lat="46.52894246792176" lon="7.337300455134344"><ele></ele><time>2014-8-4T9:14:38Z</time></trkpt>
<trkpt lat="46.52909753266556" lon="7.3373296301761535"><ele></ele><time>2014-8-4T9:14:41Z</time></trkpt>
<trkpt lat="46.529365065291685" lon="7.338304208608593"><ele></ele><time>2014-8-4T9:14:44Z</time></trkpt>
<trkpt lat="46.52968172750155" lon="7.338645114156707"><ele></ele><time>2014-8-4T9:14:47Z</time></trkpt>
<trkpt lat="46.52980578149009" lon="7.3385487265415135"><ele></ele><time>2014-8-4T9:14:50Z</time></trkpt>
<trkpt lat="46.52977670871921" lon="7.337868698576983"><ele></ele><time>2014-8-4T9:14:53Z</time></trkpt>
<trkpt lat="46.529964561375245" lon="7.337097902428765"><ele></ele><time>2014-8-4T9:14:56Z</time></trkpt>
<trkpt lat="46.52990388054842" lon="7.336869743695443"><ele></ele><time>2014-8-4T9:14:59Z</time></trkpt>
<trkpt lat="46.52975686507323" lon="7.336696483394494"><ele></ele><time>2014-8-4T9:15:2Z</time></trkpt>
<trkpt lat="46.52984127438688" lon="7.336505043071908"><ele></ele><time>2014-8-4T9:15:5Z</time></trkpt>
<trkpt lat="46.53029774537495" lon="7.336923822171357"><ele></ele><time>2014-8-4T9:15:8Z</time></trkpt>
<trkpt lat="46.53060451340705" lon="7.337457260523929"><ele></ele><time>2014-8-4T9:15:11Z</time></trkpt>
<trkpt lat="46.53096057088884" lon="7.337781655139397"><ele></ele><time>2014-8-4T9:15:14Z</time></trkpt>
<trkpt lat="46.53121428386557" lon="7.338183662633799"><ele></ele><time>2014-8-4T9:15:17Z</time></trkpt>
<trkpt lat="46.53129306793853" lon="7.3385036881098955"><ele></ele><time>2014-8-4T9:15:20Z</time></trkpt>
<trkpt lat="46.53148769196454" lon="7.338714920390286"><ele></ele><time>2014-8-4T9:15:23Z</time></trkpt>
<trkpt lat="46.53137823000759" lon="7.338400425833608"><ele></ele><time>2014-8-4T9:15:26Z</time></trkpt>
<trkpt lat="46.53142676173482" lon="7.338374024562114"><ele></ele><time>2014-8-4T9:15:29Z</time></trkpt>
<trkpt lat="46.53150370047394" lon="7.338765967014505"><ele></ele><time>2014-8-4T9:15:32Z</time></trkpt>
<trkpt lat="46.5316026888493" lon="7.338872672869379"><ele></ele><time>2014-8-4T9:15:35Z</time></trkpt>
<trkpt lat="46.53184802514789" lon="7.338989358781212"><ele></ele><time>2014-8-4T9:15:38Z</time></trkpt>
<trkpt lat="46.5323545321252" lon="7.339629171480278"><ele></ele><time>2014-8-4T9:15:41Z</time></trkpt>
<trkpt lat="46.5330345503941" lon="7.339952237217627"><ele></ele><time>2014-8-4T9:15:44Z</time></trkpt>
<trkpt lat="46.53372369714417" lon="7.340703033678153"><ele></ele><time>2014-8-4T9:15:47Z</time></trkpt>
<trkpt lat="46.53435300271096" lon="7.341145959197994"><ele></ele><time>2014-8-4T9:15:50Z</time></trkpt>
<trkpt lat="46.534667817925346" lon="7.341653078459822"><ele></ele><time>2014-8-4T9:15:53Z</time></trkpt>
<trkpt lat="46.53507827519829" lon="7.341914610501192"><ele></ele><time>2014-8-4T9:15:56Z</time></trkpt>
<trkpt lat="46.53526526886079" lon="7.342282584716624"><ele></ele><time>2014-8-4T9:15:59Z</time></trkpt>
<trkpt lat="46.535663905656634" lon="7.342653584426636"><ele></ele><time>2014-8-4T9:16:2Z</time></trkpt>
<trkpt lat="46.53640241457741" lon="7.343808056826585"><ele></ele><time>2014-8-4T9:16:5Z</time></trkpt>
<trkpt lat="46.53772715034393" lon="7.345176290734912"><ele></ele><time>2014-8-4T9:16:8Z</time></trkpt>
<trkpt lat="46.538165596088824" lon="7.345831271967932"><ele></ele><time>2014-8-4T9:16:11Z</time></trkpt>
<trkpt lat="46.53811714861137" lon="7.345833700903431"><ele></ele><time>2014-8-4T9:16:14Z</time></trkpt>
<trkpt lat="46.53850824179077" lon="7.346201934214452"><ele></ele><time>2014-8-4T9:16:17Z</time></trkpt>
<trkpt lat="46.53886295326156" lon="7.34680310021824"><ele></ele><time>2014-8-4T9:16:20Z</time></trkpt>
<trkpt lat="46.53905380620954" lon="7.346975020967615"><ele></ele><time>2014-8-4T9:16:23Z</time></trkpt>
<trkpt lat="46.5395990277307" lon="7.348169300085467"><ele></ele><time>2014-8-4T9:16:26Z</time></trkpt>
<trkpt lat="46.53985878001358" lon="7.348339379389338"><ele></ele><time>2014-8-4T9:16:29Z</time></trkpt>
<trkpt lat="46.540036303984834" lon="7.348607859551923"><ele></ele><time>2014-8-4T9:16:32Z</time></trkpt>
<trkpt lat="46.54009036267413" lon="7.348863091605281"><ele></ele><time>2014-8-4T9:16:35Z</time></trkpt>
<trkpt lat="46.54296280865961" lon="7.350764977451951"><ele></ele><time>2014-8-4T9:16:38Z</time></trkpt>
<trkpt lat="46.54369898895747" lon="7.3509228369801844"><ele></ele><time>2014-8-4T9:16:41Z</time></trkpt>
<trkpt lat="46.54416216939103" lon="7.3511395274503695"><ele></ele><time>2014-8-4T9:16:44Z</time></trkpt>
<trkpt lat="46.54499850256437" lon="7.351904662060109"><ele></ele><time>2014-8-4T9:16:47Z</time></trkpt>
<trkpt lat="46.544993820714495" lon="7.351686531027186"><ele></ele><time>2014-8-4T9:16:50Z</time></trkpt>
<trkpt lat="46.54568186370106" lon="7.351528973541166"><ele></ele><time>2014-8-4T9:16:53Z</time></trkpt>
<trkpt lat="46.546612652224695" lon="7.351195008565272"><ele></ele><time>2014-8-4T9:16:56Z</time></trkpt>
<trkpt lat="46.54742230039545" lon="7.351252372729159"><ele></ele><time>2014-8-4T9:16:59Z</time></trkpt>
<trkpt lat="46.547989022540065" lon="7.351251458139239"><ele></ele><time>2014-8-4T9:17:2Z</time></trkpt>
<trkpt lat="46.54875816044916" lon="7.35126977454992"><ele></ele><time>2014-8-4T9:17:5Z</time></trkpt>
<trkpt lat="46.54906856832581" lon="7.3513475049240595"><ele></ele><time>2014-8-4T9:17:8Z</time></trkpt>
<trkpt lat="46.550121321795615" lon="7.3516978551178385"><ele></ele><time>2014-8-4T9:17:11Z</time></trkpt>
<trkpt lat="46.551201283811025" lon="7.352341554079002"><ele></ele><time>2014-8-4T9:17:14Z</time></trkpt>
<trkpt lat="46.55215971328472" lon="7.352868117431173"><ele></ele><time>2014-8-4T9:17:17Z</time></trkpt>
<trkpt lat="46.5525379102109" lon="7.3533760538767865"><ele></ele><time>2014-8-4T9:17:20Z</time></trkpt>
<trkpt lat="46.552551331274245" lon="7.353431631123276"><ele></ele><time>2014-8-4T9:17:23Z</time></trkpt>
<trkpt lat="46.5535315082511" lon="7.353642892616585"><ele></ele><time>2014-8-4T9:17:26Z</time></trkpt>
<trkpt lat="46.5559715495848" lon="7.354595087958632"><ele></ele><time>2014-8-4T9:17:29Z</time></trkpt>
<trkpt lat="46.55632576933604" lon="7.354588228036213"><ele></ele><time>2014-8-4T9:17:32Z</time></trkpt>
<trkpt lat="46.556351335592616" lon="7.354509271174176"><ele></ele><time>2014-8-4T9:17:35Z</time></trkpt>
<trkpt lat="46.55624940225562" lon="7.3550242533906705"><ele></ele><time>2014-8-4T9:17:38Z</time></trkpt>
<trkpt lat="46.556626086051665" lon="7.354988728090177"><ele></ele><time>2014-8-4T9:17:41Z</time></trkpt>
<trkpt lat="46.5572753464674" lon="7.355130239437729"><ele></ele><time>2014-8-4T9:17:44Z</time></trkpt>
<trkpt lat="46.55787362827262" lon="7.356193342485587"><ele></ele><time>2014-8-4T9:17:47Z</time></trkpt>
<trkpt lat="46.55839942121158" lon="7.356441551202369"><ele></ele><time>2014-8-4T9:17:50Z</time></trkpt>
<trkpt lat="46.55824351155271" lon="7.3567793372985575"><ele></ele><time>2014-8-4T9:17:53Z</time></trkpt>
<trkpt lat="46.559070460193794" lon="7.357386136370116"><ele></ele><time>2014-8-4T9:17:56Z</time></trkpt>
<trkpt lat="46.559959187578634" lon="7.357769223921467"><ele></ele><time>2014-8-4T9:17:59Z</time></trkpt>
<trkpt lat="46.560514146154986" lon="7.358209799050915"><ele></ele><time>2014-8-4T9:18:2Z</time></trkpt>
<trkpt lat="46.56137488576458" lon="7.358159623410616"><ele></ele><time>2014-8-4T9:18:5Z</time></trkpt>
<trkpt lat="46.56145334349838" lon="7.357991400948355"><ele></ele><time>2014-8-4T9:18:8Z</time></trkpt>
<trkpt lat="46.56147061723113" lon="7.357602312271963"><ele></ele><time>2014-8-4T9:18:11Z</time></trkpt>
<trkpt lat="46.56156340810242" lon="7.357430569935248"><ele></ele><time>2014-8-4T9:18:14Z</time></trkpt>
<trkpt lat="46.56226070938845" lon="7.356881160304029"><ele></ele><time>2014-8-4T9:18:17Z</time></trkpt>
<trkpt lat="46.56225249295163" lon="7.357001356910683"><ele></ele><time>2014-8-4T9:18:20Z</time></trkpt>
<trkpt lat="46.56239431332355" lon="7.357090965070433"><ele></ele><time>2014-8-4T9:18:23Z</time></trkpt>
<trkpt lat="46.56330936850109" lon="7.357000474398216"><ele></ele><time>2014-8-4T9:18:26Z</time></trkpt>
<trkpt lat="46.563951252159136" lon="7.357185571451244"><ele></ele><time>2014-8-4T9:18:29Z</time></trkpt>
<trkpt lat="46.564139505327574" lon="7.357442903802911"><ele></ele><time>2014-8-4T9:18:32Z</time></trkpt>
<trkpt lat="46.56423681088213" lon="7.357914307300709"><ele></ele><time>2014-8-4T9:18:35Z</time></trkpt>
<trkpt lat="46.56432004149465" lon="7.358014306859079"><ele></ele><time>2014-8-4T9:18:38Z</time></trkpt>
<trkpt lat="46.56441811074408" lon="7.357966868785904"><ele></ele><time>2014-8-4T9:18:41Z</time></trkpt>
<trkpt lat="46.56445591625388" lon="7.3577956273257525"><ele></ele><time>2014-8-4T9:18:44Z</time></trkpt>
<trkpt lat="46.56446406609666" lon="7.356717124432036"><ele></ele><time>2014-8-4T9:18:47Z</time></trkpt>
<trkpt lat="46.56457471712108" lon="7.356174817566205"><ele></ele><time>2014-8-4T9:18:50Z</time></trkpt>
<trkpt lat="46.56614995782476" lon="7.35464685034484"><ele></ele><time>2014-8-4T9:18:53Z</time></trkpt>
<trkpt lat="46.56598006054172" lon="7.354417849609386"><ele></ele><time>2014-8-4T9:18:56Z</time></trkpt>
<trkpt lat="46.56594569862736" lon="7.35419949900211"><ele></ele><time>2014-8-4T9:18:59Z</time></trkpt>
<trkpt lat="46.566854650783156" lon="7.353238796069268"><ele></ele><time>2014-8-4T9:19:2Z</time></trkpt>
<trkpt lat="46.56747441565199" lon="7.352901614208384"><ele></ele><time>2014-8-4T9:19:5Z</time></trkpt>
<trkpt lat="46.56817379902008" lon="7.353102136227918"><ele></ele><time>2014-8-4T9:19:8Z</time></trkpt>
<trkpt lat="46.569672241693155" lon="7.352675971234011"><ele></ele><time>2014-8-4T9:19:11Z</time></trkpt>
<trkpt lat="46.57056759603225" lon="7.352779521659086"><ele></ele><time>2014-8-4T9:19:14Z</time></trkpt>
<trkpt lat="46.57069248914287" lon="7.352637201163737"><ele></ele><time>2014-8-4T9:19:17Z</time></trkpt>
<trkpt lat="46.57067673809385" lon="7.3522521346865695"><ele></ele><time>2014-8-4T9:19:20Z</time></trkpt>
<trkpt lat="46.57130118461155" lon="7.352595314344239"><ele></ele><time>2014-8-4T9:19:23Z</time></trkpt>
<trkpt lat="46.572345137417805" lon="7.3534157768189345"><ele></ele><time>2014-8-4T9:19:26Z</time></trkpt>
<trkpt lat="46.572482597189136" lon="7.3536181217627545"><ele></ele><time>2014-8-4T9:19:29Z</time></trkpt>
<trkpt lat="46.57250035869576" lon="7.354070411372509"><ele></ele><time>2014-8-4T9:19:32Z</time></trkpt>
<trkpt lat="46.57264845869055" lon="7.354539805000654"><ele></ele><time>2014-8-4T9:19:35Z</time></trkpt>
<trkpt lat="46.57340905050151" lon="7.353610612750586"><ele></ele><time>2014-8-4T9:19:38Z</time></trkpt>
<trkpt lat="46.5734770401498" lon="7.352928326215227"><ele></ele><time>2014-8-4T9:19:41Z</time></trkpt>
<trkpt lat="46.57356790410061" lon="7.352707801051058"><ele></ele><time>2014-8-4T9:19:44Z</time></trkpt>
<trkpt lat="46.574409543955866" lon="7.352062675503658"><ele></ele><time>2014-8-4T9:19:47Z</time></trkpt>
<trkpt lat="46.574757485418424" lon="7.351613417142957"><ele></ele><time>2014-8-4T9:19:50Z</time></trkpt>
<trkpt lat="46.57498413477143" lon="7.351484260120009"><ele></ele><time>2014-8-4T9:19:53Z</time></trkpt>
<trkpt lat="46.57502638511076" lon="7.351181003501306"><ele></ele><time>2014-8-4T9:19:56Z</time></trkpt>
<trkpt lat="46.57527784132086" lon="7.351252007886256"><ele></ele><time>2014-8-4T9:19:59Z</time></trkpt>
<trkpt lat="46.57527063554977" lon="7.35110389892456"><ele></ele><time>2014-8-4T9:20:2Z</time></trkpt>
<trkpt lat="46.5754194133052" lon="7.351173725983301"><ele></ele><time>2014-8-4T9:20:5Z</time></trkpt>
<trkpt lat="46.57534515860236" lon="7.350671645629431"><ele></ele><time>2014-8-4T9:20:8Z</time></trkpt>
<trkpt lat="46.57561823807445" lon="7.350857902356903"><ele></ele><time>2014-8-4T9:20:11Z</time></trkpt>
<trkpt lat="46.575556883007735" lon="7.350826803094549"><ele></ele><time>2014-8-4T9:20:14Z</time></trkpt>
<trkpt lat="46.5755766740507" lon="7.350289354534993"><ele></ele><time>2014-8-4T9:20:17Z</time></trkpt>
<trkpt lat="46.5759079244593" lon="7.350451557313546"><ele></ele><time>2014-8-4T9:20:20Z</time></trkpt>
<trkpt lat="46.57609149064202" lon="7.350329439504445"><ele></ele><time>2014-8-4T9:20:23Z</time></trkpt>
<trkpt lat="46.57617513980945" lon="7.350459949284083"><ele></ele><time>2014-8-4T9:20:26Z</time></trkpt>
<trkpt lat="46.57633062691514" lon="7.350318887261019"><ele></ele><time>2014-8-4T9:20:29Z</time></trkpt>
<trkpt lat="46.576770503755675" lon="7.350658874830474"><ele></ele><time>2014-8-4T9:20:32Z</time></trkpt>
<trkpt lat="46.57697141963786" lon="7.350584953766518"><ele></ele><time>2014-8-4T9:20:35Z</time></trkpt>
<trkpt lat="46.577104774812696" lon="7.350646985050817"><ele></ele><time>2014-8-4T9:20:38Z</time></trkpt>
<trkpt lat="46.57703470317645" lon="7.35058126809566"><ele></ele><time>2014-8-4T9:20:41Z</time></trkpt>
<trkpt lat="46.577757050376356" lon="7.350935096447854"><ele></ele><time>2014-8-4T9:20:44Z</time></trkpt>
<trkpt lat="46.57828435582987" lon="7.350987419490025"><ele></ele><time>2014-8-4T9:20:47Z</time></trkpt>
<trkpt lat="46.57912404724097" lon="7.3514881036118185"><ele></ele><time>2014-8-4T9:20:50Z</time></trkpt>
<trkpt lat="46.57978143837461" lon="7.351634225304137"><ele></ele><time>2014-8-4T9:20:53Z</time></trkpt>
<trkpt lat="46.57986618083581" lon="7.351563568831328"><ele></ele><time>2014-8-4T9:20:56Z</time></trkpt>
<trkpt lat="46.579831484859724" lon="7.35127791141656"><ele></ele><time>2014-8-4T9:20:59Z</time></trkpt>
<trkpt lat="46.58039701127713" lon="7.351363763598022"><ele></ele><time>2014-8-4T9:21:2Z</time></trkpt>
<trkpt lat="46.580700525721326" lon="7.35107543667432"><ele></ele><time>2014-8-4T9:21:5Z</time></trkpt>
<trkpt lat="46.582065857531816" lon="7.351006839971681"><ele></ele><time>2014-8-4T9:21:8Z</time></trkpt>
<trkpt lat="46.58220944304954" lon="7.350826214826223"><ele></ele><time>2014-8-4T9:21:11Z</time></trkpt>
<trkpt lat="46.58217289982157" lon="7.350719260057376"><ele></ele><time>2014-8-4T9:21:14Z</time></trkpt>
<trkpt lat="46.58231497957414" lon="7.350373929980922"><ele></ele><time>2014-8-4T9:21:17Z</time></trkpt>
<trkpt lat="46.58314010242631" lon="7.349995265515015"><ele></ele><time>2014-8-4T9:21:20Z</time></trkpt>
<trkpt lat="46.58440342165403" lon="7.35018734295819"><ele></ele><time>2014-8-4T9:21:23Z</time></trkpt>
<trkpt lat="46.585564153401634" lon="7.349983370494063"><ele></ele><time>2014-8-4T9:21:26Z</time></trkpt>
<trkpt lat="46.58656160076252" lon="7.350035962674176"><ele></ele><time>2014-8-4T9:21:29Z</time></trkpt>
<trkpt lat="46.58714280564827" lon="7.349890055187724"><ele></ele><time>2014-8-4T9:21:32Z</time></trkpt>
<trkpt lat="46.587307428416004" lon="7.349786041672396"><ele></ele><time>2014-8-4T9:21:35Z</time></trkpt>
<trkpt lat="46.58764003639228" lon="7.349043834614392"><ele></ele><time>2014-8-4T9:21:38Z</time></trkpt>
<trkpt lat="46.58813491313162" lon="7.348588630829408"><ele></ele><time>2014-8-4T9:21:41Z</time></trkpt>
<trkpt lat="46.588205576159" lon="7.348398196129072"><ele></ele><time>2014-8-4T9:21:44Z</time></trkpt>
<trkpt lat="46.58851973345972" lon="7.348234006025809"><ele></ele><time>2014-8-4T9:21:47Z</time></trkpt>
<trkpt lat="46.5887695828437" lon="7.349096515609915"><ele></ele><time>2014-8-4T9:21:50Z</time></trkpt>
<trkpt lat="46.58924818194523" lon="7.34956508326949"><ele></ele><time>2014-8-4T9:21:53Z</time></trkpt>
<trkpt lat="46.58945671790679" lon="7.349907073683291"><ele></ele><time>2014-8-4T9:21:56Z</time></trkpt>
<trkpt lat="46.590639732106" lon="7.350454374079043"><ele></ele><time>2014-8-4T9:21:59Z</time></trkpt>
<trkpt lat="46.59108086242088" lon="7.351013548898584"><ele></ele><time>2014-8-4T9:22:2Z</time></trkpt>
<trkpt lat="46.59170463610311" lon="7.351499221078328"><ele></ele><time>2014-8-4T9:22:5Z</time></trkpt>
<trkpt lat="46.5926617625862" lon="7.351772507776346"><ele></ele><time>2014-8-4T9:22:8Z</time></trkpt>
<trkpt lat="46.59353037276672" lon="7.352225751060238"><ele></ele><time>2014-8-4T9:22:11Z</time></trkpt>
<trkpt lat="46.593571365150375" lon="7.3519602132238555"><ele></ele><time>2014-8-4T9:22:14Z</time></trkpt>
<trkpt lat="46.59238610519422" lon="7.350447231262523"><ele></ele><time>2014-8-4T9:22:17Z</time></trkpt>
<trkpt lat="46.592315281091636" lon="7.350274728583376"><ele></ele><time>2014-8-4T9:22:20Z</time></trkpt>
<trkpt lat="46.59240673041721" lon="7.350132071657504"><ele></ele><time>2014-8-4T9:22:23Z</time></trkpt>
<trkpt lat="46.59294433492995" lon="7.350786133467137"><ele></ele><time>2014-8-4T9:22:26Z</time></trkpt>
<trkpt lat="46.593650419816115" lon="7.351231743116447"><ele></ele><time>2014-8-4T9:22:29Z</time></trkpt>
<trkpt lat="46.59405299590883" lon="7.351648507529611"><ele></ele><time>2014-8-4T9:22:32Z</time></trkpt>
<trkpt lat="46.59434611175839" lon="7.351642902647171"><ele></ele><time>2014-8-4T9:22:35Z</time></trkpt>
<trkpt lat="46.59444351164564" lon="7.351533606009287"><ele></ele><time>2014-8-4T9:22:38Z</time></trkpt>
<trkpt lat="46.59447746406993" lon="7.351221045320234"><ele></ele><time>2014-8-4T9:22:41Z</time></trkpt>
<trkpt lat="46.59411336288392" lon="7.35069950829566"><ele></ele><time>2014-8-4T9:22:44Z</time></trkpt>
<trkpt lat="46.59388748445956" lon="7.349907575567645"><ele></ele><time>2014-8-4T9:22:47Z</time></trkpt>
<trkpt lat="46.59263146919362" lon="7.349054332196774"><ele></ele><time>2014-8-4T9:22:50Z</time></trkpt>
<trkpt lat="46.59240030113465" lon="7.348762213411792"><ele></ele><time>2014-8-4T9:22:53Z</time></trkpt>
<trkpt lat="46.59226837930204" lon="7.348233141338121"><ele></ele><time>2014-8-4T9:22:56Z</time></trkpt>
<trkpt lat="46.59234390867619" lon="7.347776496906893"><ele></ele><time>2014-8-4T9:22:59Z</time></trkpt>
<trkpt lat="46.59213931602318" lon="7.347224539434647"><ele></ele><time>2014-8-4T9:23:2Z</time></trkpt>
<trkpt lat="46.59058105634376" lon="7.345957468862598"><ele></ele><time>2014-8-4T9:23:5Z</time></trkpt>
<trkpt lat="46.589898864696444" lon="7.345254367208336"><ele></ele><time>2014-8-4T9:23:8Z</time></trkpt>
<trkpt lat="46.589438457794195" lon="7.344598380323275"><ele></ele><time>2014-8-4T9:23:11Z</time></trkpt>
<trkpt lat="46.58943352189808" lon="7.344079538933105"><ele></ele><time>2014-8-4T9:23:14Z</time></trkpt>
<trkpt lat="46.58966328234063" lon="7.343418129856342"><ele></ele><time>2014-8-4T9:23:17Z</time></trkpt>
<trkpt lat="46.59055580763129" lon="7.342401352212077"><ele></ele><time>2014-8-4T9:23:20Z</time></trkpt>
<trkpt lat="46.59090778438772" lon="7.341306518433713"><ele></ele><time>2014-8-4T9:23:23Z</time></trkpt>
<trkpt lat="46.59110677770114" lon="7.340947779563643"><ele></ele><time>2014-8-4T9:23:26Z</time></trkpt>
<trkpt lat="46.59131532322605" lon="7.340763301286127"><ele></ele><time>2014-8-4T9:23:29Z</time></trkpt>
<trkpt lat="46.59173542524903" lon="7.340751750141231"><ele></ele><time>2014-8-4T9:23:32Z</time></trkpt>
<trkpt lat="46.59199845228587" lon="7.340620415337489"><ele></ele><time>2014-8-4T9:23:35Z</time></trkpt>
<trkpt lat="46.592140698443316" lon="7.3403475890650265"><ele></ele><time>2014-8-4T9:23:38Z</time></trkpt>
<trkpt lat="46.59224439556417" lon="7.3396480375303605"><ele></ele><time>2014-8-4T9:23:41Z</time></trkpt>
<trkpt lat="46.59211809306632" lon="7.33893473091894"><ele></ele><time>2014-8-4T9:23:44Z</time></trkpt>
<trkpt lat="46.59197812113113" lon="7.338599700063288"><ele></ele><time>2014-8-4T9:23:47Z</time></trkpt>
<trkpt lat="46.59159733968944" lon="7.338098278850727"><ele></ele><time>2014-8-4T9:23:50Z</time></trkpt>
<trkpt lat="46.59135829764139" lon="7.3375353396774115"><ele></ele><time>2014-8-4T9:23:53Z</time></trkpt>
<trkpt lat="46.59120759061999" lon="7.337541201302376"><ele></ele><time>2014-8-4T9:23:56Z</time></trkpt>
<trkpt lat="46.591283029012885" lon="7.337480183750949"><ele></ele><time>2014-8-4T9:23:59Z</time></trkpt>
<trkpt lat="46.591233239898244" lon="7.337508177490709"><ele></ele><time>2014-8-4T9:24:2Z</time></trkpt>
<trkpt lat="46.59148687448276" lon="7.337633999819711"><ele></ele><time>2014-8-4T9:24:5Z</time></trkpt>
<trkpt lat="46.59131655443782" lon="7.337603315506227"><ele></ele><time>2014-8-4T9:24:8Z</time></trkpt>
<trkpt lat="46.59136609010554" lon="7.3376840353273325"><ele></ele><time>2014-8-4T9:24:11Z</time></trkpt>
<trkpt lat="46.59144823383485" lon="7.337633914533283"><ele></ele><time>2014-8-4T9:24:14Z</time></trkpt>
<trkpt lat="46.59139635079091" lon="7.337577166929374"><ele></ele><time>2014-8-4T9:24:17Z</time></trkpt>
<trkpt lat="46.59147011117881" lon="7.337604746264164"><ele></ele><time>2014-8-4T9:24:20Z</time></trkpt>
<trkpt lat="46.59137916826529" lon="7.337554786536507"><ele></ele><time>2014-8-4T9:24:23Z</time></trkpt>
<trkpt lat="46.59140976055391" lon="7.3376486652608905"><ele></ele><time>2014-8-4T9:24:26Z</time></trkpt>
<trkpt lat="46.59148923771296" lon="7.336744007089204"><ele></ele><time>2014-8-4T9:24:29Z</time></trkpt>
<trkpt lat="46.591784124260805" lon="7.336164575808326"><ele></ele><time>2014-8-4T9:24:32Z</time></trkpt>
<trkpt lat="46.59256835088275" lon="7.335389361381202"><ele></ele><time>2014-8-4T9:24:35Z</time></trkpt>
<trkpt lat="46.59338627762311" lon="7.33435388951015"><ele></ele><time>2014-8-4T9:24:38Z</time></trkpt>
<trkpt lat="46.59478767474123" lon="7.333052816736534"><ele></ele><time>2014-8-4T9:24:41Z</time></trkpt>
<trkpt lat="46.595483898547144" lon="7.331883145744091"><ele></ele><time>2014-8-4T9:24:44Z</time></trkpt>
<trkpt lat="46.59637447632136" lon="7.331952498225381"><ele></ele><time>2014-8-4T9:24:47Z</time></trkpt>
<trkpt lat="46.596988864059114" lon="7.332335491759494"><ele></ele><time>2014-8-4T9:24:50Z</time></trkpt>
<trkpt lat="46.59720922424082" lon="7.332363411968164"><ele></ele><time>2014-8-4T9:24:53Z</time></trkpt>
<trkpt lat="46.59748842881015" lon="7.332211709794986"><ele></ele><time>2014-8-4T9:24:56Z</time></trkpt>
<trkpt lat="46.597671746444526" lon="7.3319383822549025"><ele></ele><time>2014-8-4T9:24:59Z</time></trkpt>
<trkpt lat="46.597573517936475" lon="7.331525065850938"><ele></ele><time>2014-8-4T9:25:2Z</time></trkpt>
<trkpt lat="46.597344698643454" lon="7.331136890231532"><ele></ele><time>2014-8-4T9:25:5Z</time></trkpt>
<trkpt lat="46.5971195758125" lon="7.330291899900668"><ele></ele><time>2014-8-4T9:25:8Z</time></trkpt>
<trkpt lat="46.596319472696806" lon="7.328392106268333"><ele></ele><time>2014-8-4T9:25:11Z</time></trkpt>
<trkpt lat="46.59589546052034" lon="7.326811845898986"><ele></ele><time>2014-8-4T9:25:14Z</time></trkpt>
<trkpt lat="46.595949869000485" lon="7.326280769272163"><ele></ele><time>2014-8-4T9:25:17Z</time></trkpt>
<trkpt lat="46.59668717159751" lon="7.324720502384114"><ele></ele><time>2014-8-4T9:25:20Z</time></trkpt>
<trkpt lat="46.596651638917415" lon="7.324360665027608"><ele></ele><time>2014-8-4T9:25:23Z</time></trkpt>
<trkpt lat="46.595523149003164" lon="7.321564076542008"><ele></ele><time>2014-8-4T9:25:26Z</time></trkpt>
<trkpt lat="46.595259155724754" lon="7.319561708506106"><ele></ele><time>2014-8-4T9:25:29Z</time></trkpt>
<trkpt lat="46.59484553194334" lon="7.318273055526788"><ele></ele><time>2014-8-4T9:25:32Z</time></trkpt>
<trkpt lat="46.594577668082174" lon="7.317075771116811"><ele></ele><time>2014-8-4T9:25:35Z</time></trkpt>
<trkpt lat="46.59456804100661" lon="7.316425165771918"><ele></ele><time>2014-8-4T9:25:38Z</time></trkpt>
<trkpt lat="46.59550165760648" lon="7.314372720039107"><ele></ele><time>2014-8-4T9:25:41Z</time></trkpt>
<trkpt lat="46.595665200975084" lon="7.313725306542127"><ele></ele><time>2014-8-4T9:25:44Z</time></trkpt>
<trkpt lat="46.59644722815071" lon="7.311883013185983"><ele></ele><time>2014-8-4T9:25:47Z</time></trkpt>
<trkpt lat="46.59615832037929" lon="7.310944097575206"><ele></ele><time>2014-8-4T9:25:50Z</time></trkpt>
<trkpt lat="46.59657167644049" lon="7.310551622008422"><ele></ele><time>2014-8-4T9:25:53Z</time></trkpt>
<trkpt lat="46.596949107785676" lon="7.310211426108233"><ele></ele><time>2014-8-4T9:25:56Z</time></trkpt>
<trkpt lat="46.597326980165924" lon="7.310262729763614"><ele></ele><time>2014-8-4T9:25:59Z</time></trkpt>
<trkpt lat="46.59765137833024" lon="7.3107578697065065"><ele></ele><time>2014-8-4T9:26:2Z</time></trkpt>
<trkpt lat="46.597994518044295" lon="7.310996371967931"><ele></ele><time>2014-8-4T9:26:5Z</time></trkpt>
<trkpt lat="46.59837108170772" lon="7.310808370108266"><ele></ele><time>2014-8-4T9:26:8Z</time></trkpt>
<trkpt lat="46.598947031713855" lon="7.31101581823879"><ele></ele><time>2014-8-4T9:26:11Z</time></trkpt>
<trkpt lat="46.59955887591332" lon="7.311144881941877"><ele></ele><time>2014-8-4T9:26:14Z</time></trkpt>
<trkpt lat="46.60092587896111" lon="7.310854537063346"><ele></ele><time>2014-8-4T9:26:17Z</time></trkpt>
<trkpt lat="46.60205873221461" lon="7.31032980813505"><ele></ele><time>2014-8-4T9:26:20Z</time></trkpt>
<trkpt lat="46.60365873043381" lon="7.30925577292789"><ele></ele><time>2014-8-4T9:26:23Z</time></trkpt>
<trkpt lat="46.603964282473285" lon="7.308994006465247"><ele></ele><time>2014-8-4T9:26:26Z</time></trkpt>
<trkpt lat="46.604143687542354" lon="7.308549814471746"><ele></ele><time>2014-8-4T9:26:29Z</time></trkpt>
<trkpt lat="46.604340902358736" lon="7.307948954093444"><ele></ele><time>2014-8-4T9:26:32Z</time></trkpt>
<trkpt lat="46.604664232232075" lon="7.307504406608639"><ele></ele><time>2014-8-4T9:26:35Z</time></trkpt>
<trkpt lat="46.604987228242074" lon="7.306772710011105"><ele></ele><time>2014-8-4T9:26:38Z</time></trkpt>
<trkpt lat="46.60554446825515" lon="7.306353682321098"><ele></ele><time>2014-8-4T9:26:41Z</time></trkpt>
<trkpt lat="46.605994245975836" lon="7.306352582308449"><ele></ele><time>2014-8-4T9:26:44Z</time></trkpt>
<trkpt lat="46.60732534518028" lon="7.306140485285834"><ele></ele><time>2014-8-4T9:26:47Z</time></trkpt>
<trkpt lat="46.60820645315668" lon="7.305746742674638"><ele></ele><time>2014-8-4T9:26:50Z</time></trkpt>
<trkpt lat="46.608872063123314" lon="7.305692895386664"><ele></ele><time>2014-8-4T9:26:53Z</time></trkpt>
<trkpt lat="46.60924944910917" lon="7.305326482171844"><ele></ele><time>2014-8-4T9:26:56Z</time></trkpt>
<trkpt lat="46.60936109382407" lon="7.304770257032786"><ele></ele><time>2014-8-4T9:26:59Z</time></trkpt>
<trkpt lat="46.60927779011858" lon="7.304101376513549"><ele></ele><time>2014-8-4T9:27:2Z</time></trkpt>
<trkpt lat="46.609373573541674" lon="7.303785911992254"><ele></ele><time>2014-8-4T9:27:5Z</time></trkpt>
<trkpt lat="46.60985206125223" lon="7.302745120326636"><ele></ele><time>2014-8-4T9:27:8Z</time></trkpt>
<trkpt lat="46.60980336948833" lon="7.302114031931203"><ele></ele><time>2014-8-4T9:27:11Z</time></trkpt>
<trkpt lat="46.609531996778195" lon="7.3005666466597"><ele></ele><time>2014-8-4T9:27:14Z</time></trkpt>
<trkpt lat="46.609570562098185" lon="7.300118718327486"><ele></ele><time>2014-8-4T9:27:17Z</time></trkpt>
<trkpt lat="46.60976746544773" lon="7.29948589102013"><ele></ele><time>2014-8-4T9:27:20Z</time></trkpt>
<trkpt lat="46.60980360343344" lon="7.298857667485622"><ele></ele><time>2014-8-4T9:27:23Z</time></trkpt>
<trkpt lat="46.609572959590075" lon="7.297450250165285"><ele></ele><time>2014-8-4T9:27:26Z</time></trkpt>
<trkpt lat="46.60951857759663" lon="7.296570816920093"><ele></ele><time>2014-8-4T9:27:29Z</time></trkpt>
<trkpt lat="46.61025247622959" lon="7.293347494353808"><ele></ele><time>2014-8-4T9:27:32Z</time></trkpt>
<trkpt lat="46.610277496935616" lon="7.291113042982425"><ele></ele><time>2014-8-4T9:27:35Z</time></trkpt>
<trkpt lat="46.6104738496914" lon="7.2885930263429195"><ele></ele><time>2014-8-4T9:27:38Z</time></trkpt>
<trkpt lat="46.61025310296589" lon="7.286861145234472"><ele></ele><time>2014-8-4T9:27:41Z</time></trkpt>
<trkpt lat="46.610429159310534" lon="7.28498427257014"><ele></ele><time>2014-8-4T9:27:44Z</time></trkpt>
<trkpt lat="46.61014587020862" lon="7.283946998710402"><ele></ele><time>2014-8-4T9:27:47Z</time></trkpt>
<trkpt lat="46.61012777708015" lon="7.283331010659072"><ele></ele><time>2014-8-4T9:27:50Z</time></trkpt>
<trkpt lat="46.61043440619245" lon="7.28237498095893"><ele></ele><time>2014-8-4T9:27:53Z</time></trkpt>
<trkpt lat="46.61050172677679" lon="7.281660173456706"><ele></ele><time>2014-8-4T9:27:56Z</time></trkpt>
<trkpt lat="46.61047543988131" lon="7.279979513559992"><ele></ele><time>2014-8-4T9:27:59Z</time></trkpt>
<trkpt lat="46.610820641654385" lon="7.2782061643861296"><ele></ele><time>2014-8-4T9:28:2Z</time></trkpt>
<trkpt lat="46.61070682645435" lon="7.277619593079432"><ele></ele><time>2014-8-4T9:28:5Z</time></trkpt>
<trkpt lat="46.61034005468555" lon="7.276522217477886"><ele></ele><time>2014-8-4T9:28:8Z</time></trkpt>
<trkpt lat="46.61025699263881" lon="7.276376704034196"><ele></ele><time>2014-8-4T9:28:11Z</time></trkpt>
<trkpt lat="46.60976506028637" lon="7.2762364549263685"><ele></ele><time>2014-8-4T9:28:14Z</time></trkpt>
<trkpt lat="46.60953598904925" lon="7.275888847562076"><ele></ele><time>2014-8-4T9:28:17Z</time></trkpt>
<trkpt lat="46.60932369921425" lon="7.274633646493857"><ele></ele><time>2014-8-4T9:28:20Z</time></trkpt>
<trkpt lat="46.609090026592334" lon="7.273838612003991"><ele></ele><time>2014-8-4T9:28:23Z</time></trkpt>
<trkpt lat="46.60911786759671" lon="7.273166299255333"><ele></ele><time>2014-8-4T9:28:26Z</time></trkpt>
<trkpt lat="46.60927738337105" lon="7.272764643981018"><ele></ele><time>2014-8-4T9:28:29Z</time></trkpt>
<trkpt lat="46.609940739469764" lon="7.272211715156569"><ele></ele><time>2014-8-4T9:28:32Z</time></trkpt>
<trkpt lat="46.60961728893127" lon="7.271805933470093"><ele></ele><time>2014-8-4T9:28:35Z</time></trkpt>
<trkpt lat="46.60920533210104" lon="7.271049281041714"><ele></ele><time>2014-8-4T9:28:38Z</time></trkpt>
<trkpt lat="46.608472095567286" lon="7.270324467050879"><ele></ele><time>2014-8-4T9:28:41Z</time></trkpt>
<trkpt lat="46.608361548060635" lon="7.269806879018088"><ele></ele><time>2014-8-4T9:28:44Z</time></trkpt>
<trkpt lat="46.60839625416358" lon="7.269552489107921"><ele></ele><time>2014-8-4T9:28:47Z</time></trkpt>
<trkpt lat="46.60827966538858" lon="7.269358526795291"><ele></ele><time>2014-8-4T9:28:50Z</time></trkpt>
<trkpt lat="46.60850950589001" lon="7.268937679744888"><ele></ele><time>2014-8-4T9:28:53Z</time></trkpt>
<trkpt lat="46.60864673140751" lon="7.268246512047456"><ele></ele><time>2014-8-4T9:28:56Z</time></trkpt>
<trkpt lat="46.60774284572854" lon="7.26717476343825"><ele></ele><time>2014-8-4T9:28:59Z</time></trkpt>
<trkpt lat="46.607353760856434" lon="7.266970815707842"><ele></ele><time>2014-8-4T9:29:2Z</time></trkpt>
<trkpt lat="46.60701630340137" lon="7.267035342977763"><ele></ele><time>2014-8-4T9:29:5Z</time></trkpt>
<trkpt lat="46.607008174926605" lon="7.2669331670326835"><ele></ele><time>2014-8-4T9:29:8Z</time></trkpt>
<trkpt lat="46.60675101983313" lon="7.266815809829584"><ele></ele><time>2014-8-4T9:29:11Z</time></trkpt>
<trkpt lat="46.60632464642766" lon="7.2660468352755"><ele></ele><time>2014-8-4T9:29:14Z</time></trkpt>
<trkpt lat="46.60618903769128" lon="7.2654946288561"><ele></ele><time>2014-8-4T9:29:17Z</time></trkpt>
<trkpt lat="46.60622693022978" lon="7.265174189521828"><ele></ele><time>2014-8-4T9:29:20Z</time></trkpt>
<trkpt lat="46.60612291988302" lon="7.264697086381789"><ele></ele><time>2014-8-4T9:29:23Z</time></trkpt>
<trkpt lat="46.605540654175414" lon="7.263343634136872"><ele></ele><time>2014-8-4T9:29:26Z</time></trkpt>
<trkpt lat="46.60550076460884" lon="7.262914645788955"><ele></ele><time>2014-8-4T9:29:29Z</time></trkpt>
<trkpt lat="46.605628518442735" lon="7.262232278692888"><ele></ele><time>2014-8-4T9:29:32Z</time></trkpt>
<trkpt lat="46.60493713265525" lon="7.2602414606699455"><ele></ele><time>2014-8-4T9:29:35Z</time></trkpt>
<trkpt lat="46.60489992665878" lon="7.2597444950345"><ele></ele><time>2014-8-4T9:29:38Z</time></trkpt>
<trkpt lat="46.605000181260785" lon="7.259396816962815"><ele></ele><time>2014-8-4T9:29:41Z</time></trkpt>
<trkpt lat="46.60483415994253" lon="7.258144802627819"><ele></ele><time>2014-8-4T9:29:44Z</time></trkpt>
<trkpt lat="46.60476233043923" lon="7.257962995848562"><ele></ele><time>2014-8-4T9:29:47Z</time></trkpt>
<trkpt lat="46.60390102411205" lon="7.256946150154564"><ele></ele><time>2014-8-4T9:29:50Z</time></trkpt>
<trkpt lat="46.60380891147986" lon="7.256707513118112"><ele></ele><time>2014-8-4T9:29:53Z</time></trkpt>
<trkpt lat="46.60355807548804" lon="7.254931289897609"><ele></ele><time>2014-8-4T9:29:56Z</time></trkpt>
<trkpt lat="46.60343205794728" lon="7.252567498971029"><ele></ele><time>2014-8-4T9:29:59Z</time></trkpt>
<trkpt lat="46.60239638443821" lon="7.248489735660671"><ele></ele><time>2014-8-4T9:30:2Z</time></trkpt>
<trkpt lat="46.60214694739113" lon="7.248038191373092"><ele></ele><time>2014-8-4T9:30:5Z</time></trkpt>
<trkpt lat="46.60175392738672" lon="7.247619414559604"><ele></ele><time>2014-8-4T9:30:8Z</time></trkpt>
<trkpt lat="46.60142873141829" lon="7.246479627520824"><ele></ele><time>2014-8-4T9:30:11Z</time></trkpt>
<trkpt lat="46.60035437263096" lon="7.2446711001635675"><ele></ele><time>2014-8-4T9:30:14Z</time></trkpt>
<trkpt lat="46.60011852441598" lon="7.243712114768469"><ele></ele><time>2014-8-4T9:30:17Z</time></trkpt>
<trkpt lat="46.59978166909577" lon="7.243003325638759"><ele></ele><time>2014-8-4T9:30:20Z</time></trkpt>
<trkpt lat="46.59967699548742" lon="7.24216932004044"><ele></ele><time>2014-8-4T9:30:23Z</time></trkpt>
<trkpt lat="46.59973292064262" lon="7.241277737184358"><ele></ele><time>2014-8-4T9:30:26Z</time></trkpt>
<trkpt lat="46.59967267557626" lon="7.240226054857729"><ele></ele><time>2014-8-4T9:30:29Z</time></trkpt>
<trkpt lat="46.59983597173388" lon="7.2394063932940655"><ele></ele><time>2014-8-4T9:30:32Z</time></trkpt>
<trkpt lat="46.59974437961219" lon="7.238289749783444"><ele></ele><time>2014-8-4T9:30:35Z</time></trkpt>
<trkpt lat="46.60030873858105" lon="7.238077961689279"><ele></ele><time>2014-8-4T9:30:38Z</time></trkpt>
<trkpt lat="46.60048493700927" lon="7.237554685466792"><ele></ele><time>2014-8-4T9:30:41Z</time></trkpt>
<trkpt lat="46.60062368243587" lon="7.236321794144325"><ele></ele><time>2014-8-4T9:30:44Z</time></trkpt>
<trkpt lat="46.6003800408371" lon="7.235279324433528"><ele></ele><time>2014-8-4T9:30:47Z</time></trkpt>
<trkpt lat="46.59998098992779" lon="7.234662147093396"><ele></ele><time>2014-8-4T9:30:50Z</time></trkpt>
<trkpt lat="46.59971948746567" lon="7.233989319416764"><ele></ele><time>2014-8-4T9:30:53Z</time></trkpt>
<trkpt lat="46.599788922976785" lon="7.23233255139834"><ele></ele><time>2014-8-4T9:30:56Z</time></trkpt>
<trkpt lat="46.59970796324511" lon="7.231852766807129"><ele></ele><time>2014-8-4T9:30:59Z</time></trkpt>
<trkpt lat="46.59957720707845" lon="7.231763074857022"><ele></ele><time>2014-8-4T9:31:2Z</time></trkpt>
<trkpt lat="46.599577550875615" lon="7.231338530477085"><ele></ele><time>2014-8-4T9:31:5Z</time></trkpt>
<trkpt lat="46.599414863892804" lon="7.231034595261587"><ele></ele><time>2014-8-4T9:31:8Z</time></trkpt>
<trkpt lat="46.59925461428234" lon="7.230401418209695"><ele></ele><time>2014-8-4T9:31:11Z</time></trkpt>
<trkpt lat="46.59897424554695" lon="7.230077110070182"><ele></ele><time>2014-8-4T9:31:14Z</time></trkpt>
<trkpt lat="46.59899612591594" lon="7.229900168575867"><ele></ele><time>2014-8-4T9:31:17Z</time></trkpt>
<trkpt lat="46.5987842493662" lon="7.228984602396865"><ele></ele><time>2014-8-4T9:31:20Z</time></trkpt>
<trkpt lat="46.5987753746505" lon="7.228481519008778"><ele></ele><time>2014-8-4T9:31:23Z</time></trkpt>
<trkpt lat="46.598655765517115" lon="7.228438011899041"><ele></ele><time>2014-8-4T9:31:26Z</time></trkpt>
<trkpt lat="46.59855695141852" lon="7.228003405113268"><ele></ele><time>2014-8-4T9:31:29Z</time></trkpt>
<trkpt lat="46.59897325175272" lon="7.225316177757604"><ele></ele><time>2014-8-4T9:31:32Z</time></trkpt>
<trkpt lat="46.599030781737646" lon="7.223829562273281"><ele></ele><time>2014-8-4T9:31:35Z</time></trkpt>
<trkpt lat="46.599132463307846" lon="7.223390437533713"><ele></ele><time>2014-8-4T9:31:38Z</time></trkpt>
<trkpt lat="46.59905996550114" lon="7.223103018396772"><ele></ele><time>2014-8-4T9:31:41Z</time></trkpt>
<trkpt lat="46.59911823024543" lon="7.222588789833761"><ele></ele><time>2014-8-4T9:31:44Z</time></trkpt>
<trkpt lat="46.59894751253026" lon="7.22150064152664"><ele></ele><time>2014-8-4T9:31:47Z</time></trkpt>
<trkpt lat="46.59897336394769" lon="7.219767344744773"><ele></ele><time>2014-8-4T9:31:50Z</time></trkpt>
<trkpt lat="46.59889132192595" lon="7.218929651959349"><ele></ele><time>2014-8-4T9:31:53Z</time></trkpt>
<trkpt lat="46.59894297020098" lon="7.218158517188578"><ele></ele><time>2014-8-4T9:31:56Z</time></trkpt>
<trkpt lat="46.59886269806632" lon="7.216845150343499"><ele></ele><time>2014-8-4T9:31:59Z</time></trkpt>
<trkpt lat="46.599012665039055" lon="7.2161359620740875"><ele></ele><time>2014-8-4T9:32:2Z</time></trkpt>
<trkpt lat="46.599537394367346" lon="7.2150989723966585"><ele></ele><time>2014-8-4T9:32:5Z</time></trkpt>
<trkpt lat="46.59906592213958" lon="7.214567371231591"><ele></ele><time>2014-8-4T9:32:8Z</time></trkpt>
<trkpt lat="46.599877998236614" lon="7.212819019766845"><ele></ele><time>2014-8-4T9:32:11Z</time></trkpt>
<trkpt lat="46.600368365397316" lon="7.211603493784718"><ele></ele><time>2014-8-4T9:32:14Z</time></trkpt>
<trkpt lat="46.60031497395441" lon="7.211535178889016"><ele></ele><time>2014-8-4T9:32:17Z</time></trkpt>
<trkpt lat="46.60046434362743" lon="7.211346927137555"><ele></ele><time>2014-8-4T9:32:20Z</time></trkpt>
<trkpt lat="46.60132273785482" lon="7.211264149547516"><ele></ele><time>2014-8-4T9:32:23Z</time></trkpt>
<trkpt lat="46.60143245906738" lon="7.211172791170794"><ele></ele><time>2014-8-4T9:32:26Z</time></trkpt>
<trkpt lat="46.60158661675689" lon="7.2104791935323345"><ele></ele><time>2014-8-4T9:32:29Z</time></trkpt>
<trkpt lat="46.60179449712151" lon="7.210052310908856"><ele></ele><time>2014-8-4T9:32:32Z</time></trkpt>
<trkpt lat="46.60194262151024" lon="7.209277073109151"><ele></ele><time>2014-8-4T9:32:35Z</time></trkpt>
<trkpt lat="46.60223573523037" lon="7.209378255152144"><ele></ele><time>2014-8-4T9:32:38Z</time></trkpt>
<trkpt lat="46.6021959257348" lon="7.2091516901344015"><ele></ele><time>2014-8-4T9:32:41Z</time></trkpt>
<trkpt lat="46.602388799641" lon="7.208863276252547"><ele></ele><time>2014-8-4T9:32:44Z</time></trkpt>
<trkpt lat="46.60255192672924" lon="7.208134810224101"><ele></ele><time>2014-8-4T9:32:47Z</time></trkpt>
<trkpt lat="46.60272912565632" lon="7.207885120175332"><ele></ele><time>2014-8-4T9:32:50Z</time></trkpt>
<trkpt lat="46.6027743178273" lon="7.207219932736846"><ele></ele><time>2014-8-4T9:32:53Z</time></trkpt>
<trkpt lat="46.602704250141976" lon="7.206967047219582"><ele></ele><time>2014-8-4T9:32:56Z</time></trkpt>
<trkpt lat="46.60272447558025" lon="7.205746388767707"><ele></ele><time>2014-8-4T9:32:59Z</time></trkpt>
<trkpt lat="46.60341992667346" lon="7.205596716763809"><ele></ele><time>2014-8-4T9:33:2Z</time></trkpt>
<trkpt lat="46.604037093585426" lon="7.205302872434801"><ele></ele><time>2014-8-4T9:33:5Z</time></trkpt>
<trkpt lat="46.60516152423806" lon="7.205505426750673"><ele></ele><time>2014-8-4T9:33:8Z</time></trkpt>
<trkpt lat="46.6053201965849" lon="7.205380291309851"><ele></ele><time>2014-8-4T9:33:11Z</time></trkpt>
<trkpt lat="46.605423399712365" lon="7.204323838269856"><ele></ele><time>2014-8-4T9:33:14Z</time></trkpt>
<trkpt lat="46.60538721457854" lon="7.203117342999129"><ele></ele><time>2014-8-4T9:33:17Z</time></trkpt>
<trkpt lat="46.605744548311" lon="7.202513775840915"><ele></ele><time>2014-8-4T9:33:20Z</time></trkpt>
<trkpt lat="46.60597538941401" lon="7.202369197387934"><ele></ele><time>2014-8-4T9:33:23Z</time></trkpt>
<trkpt lat="46.60635836904819" lon="7.201901418446108"><ele></ele><time>2014-8-4T9:33:26Z</time></trkpt>
<trkpt lat="46.60666029726039" lon="7.201348140516881"><ele></ele><time>2014-8-4T9:33:29Z</time></trkpt>
<trkpt lat="46.60676466349981" lon="7.200798458523191"><ele></ele><time>2014-8-4T9:33:32Z</time></trkpt>
<trkpt lat="46.60674632259914" lon="7.200045006877024"><ele></ele><time>2014-8-4T9:33:35Z</time></trkpt>
<trkpt lat="46.60742663213452" lon="7.1984564938455895"><ele></ele><time>2014-8-4T9:33:38Z</time></trkpt>
<trkpt lat="46.60773578643449" lon="7.197050355837097"><ele></ele><time>2014-8-4T9:33:41Z</time></trkpt>
<trkpt lat="46.60773420044047" lon="7.196732010421907"><ele></ele><time>2014-8-4T9:33:44Z</time></trkpt>
<trkpt lat="46.607381908601326" lon="7.196714812641594"><ele></ele><time>2014-8-4T9:33:47Z</time></trkpt>
<trkpt lat="46.60696265982311" lon="7.195989842639814"><ele></ele><time>2014-8-4T9:33:50Z</time></trkpt>
<trkpt lat="46.60706214473418" lon="7.1964016506055595"><ele></ele><time>2014-8-4T9:33:53Z</time></trkpt>
<trkpt lat="46.60701477201664" lon="7.197121320335918"><ele></ele><time>2014-8-4T9:33:56Z</time></trkpt>
<trkpt lat="46.60685877239906" lon="7.1977051145572615"><ele></ele><time>2014-8-4T9:33:59Z</time></trkpt>
<trkpt lat="46.606631949569355" lon="7.198093774682949"><ele></ele><time>2014-8-4T9:34:2Z</time></trkpt>
<trkpt lat="46.60635483705469" lon="7.198392997599969"><ele></ele><time>2014-8-4T9:34:5Z</time></trkpt>
<trkpt lat="46.60497767341342" lon="7.199065672653368"><ele></ele><time>2014-8-4T9:34:8Z</time></trkpt>
<trkpt lat="46.60393720806954" lon="7.199910358949165"><ele></ele><time>2014-8-4T9:34:11Z</time></trkpt>
<trkpt lat="46.6027813094107" lon="7.201449734136032"><ele></ele><time>2014-8-4T9:34:14Z</time></trkpt>
<trkpt lat="46.60211391083905" lon="7.202908831107507"><ele></ele><time>2014-8-4T9:34:17Z</time></trkpt>
<trkpt lat="46.60193018136031" lon="7.202800026049611"><ele></ele><time>2014-8-4T9:34:20Z</time></trkpt>
</trkseg></trk></gpx>